Another Hard Day at the Office Weather Stats

 
 
 

High monthly outside Temperature, 23.6 , C
Low monthly outside Temperature, 6.2 , C
High yearly outside Temperature, 31.9 , C
Low yearly outside Temperature, 0.7 , C

Low monthly barometer, 993.6 , mb
High monthly barometer, 1028.3 , mb
Low yearly barometer, 976.8 , mb
High yearly barometer 1035.7 , mb

High wind speed, 45.0 , mph
Time of High wind speed, 7:50 , mph
High monthly wind speed, 54.0 , mph
High yearly wind speed, 64.0 , mph

 

 




3123
                    Temp     Hi    Low   Out    Dew  Wind  Wind   Wind    Hi    Hi   Wind   Heat    THW                Rain    Heat    Cool    In     In    In     In     In   In Air  Wind  Wind    ISS   Arc.
  Date    Time     Out   Temp   Temp   Hum    Pt. Speed   Dir    Run Speed   Dir  Chill  Index  Index   Bar    Rain  Rate    D-D     D-D    Temp   Hum    Dew   Heat    EMC Density  Samp   Tx   Recept  Int.
---------------------------------------------------------------------------------------------------------------------------------------------------------------------------------------------------------------
20/10/14   0:05   15.2   15.2   15.2    88   13.2  14.0     W   1.17  21.0     W   12.3   15.2   12.3  1016.8  0.00   0.0   0.011   0.000   24.1    58   15.3   24.5  10.53 1.1719    115    1    100.0    5 
20/10/14   0:10   15.1   15.2   15.1    88   13.1  13.0     W   1.08  19.0     W   12.4   15.2   12.4  1016.9  0.00   0.0   0.011   0.000   24.1    59   15.6   24.5  10.73 1.1716    117    1    100.0    5 
20/10/14   0:15   15.1   15.1   15.1    87   12.9  11.0     W   0.92  17.0     W   12.9   15.1   13.0  1017.0  0.00   0.0   0.011   0.000   24.1    59   15.6   24.5  10.73 1.1717    117    1    100.0    5 
20/10/14   0:20   15.0   15.1   15.0    87   12.9  11.0     W   0.92  18.0     W   12.9   15.1   12.9  1017.0  0.00   0.0   0.012   0.000   24.1    59   15.6   24.5  10.73 1.1717    117    1    100.0    5 
20/10/14   0:25   15.0   15.1   15.0    87   12.9  12.0     W   1.00  18.0     W   12.6   15.1   12.6  1016.9  0.00   0.0   0.012   0.000   24.1    59   15.5   24.5  10.74 1.1719    116    1    100.0    5 
20/10/14   0:30   15.0   15.1   15.0    87   12.9  12.0     W   1.00  19.0   WSW   12.6   15.1   12.6  1016.9  0.00   0.0   0.012   0.000   24.1    59   15.5   24.5  10.74 1.1719    117    1    100.0    5 
20/10/14   0:35   15.0   15.0   15.0    88   13.0  11.0     W   0.92  18.0     W   12.9   15.1   12.9  1017.0  0.00   0.0   0.012   0.000   24.1    59   15.5   24.5  10.74 1.1720    117    1    100.0    5 
20/10/14   0:40   15.0   15.0   15.0    88   13.0  10.0     W   0.83  17.0     W   13.2   15.1   13.3  1016.9  0.00   0.0   0.012   0.000   24.0    59   15.5   24.4  10.74 1.1722    116    1    100.0    5 
20/10/14   0:45   14.9   15.0   14.9    87   12.7   9.0     W   0.75  15.0   WSW   13.5   14.9   13.6  1017.1  0.00   0.0   0.012   0.000   24.0    59   15.5   24.4  10.74 1.1724    118    1    100.0    5 
20/10/14   0:50   14.8   14.9   14.8    88   12.9   8.0     W   0.67  15.0   WNW   13.8   14.9   13.9  1017.0  0.00   0.0   0.012   0.000   24.0    59   15.5   24.4  10.74 1.1723    115    1    100.0    5 
20/10/14   0:55   14.8   14.8   14.8    88   12.9   7.0     W   0.58  12.0     W   14.2   14.9   14.3  1017.2  0.00   0.0   0.012   0.000   24.0    59   15.5   24.4  10.74 1.1725    116    1    100.0    5 
20/10/14   1:00   14.8   14.8   14.8    88   12.9   7.0     W   0.58  12.0     W   14.2   14.9   14.3  1017.2  0.00   0.0   0.012   0.000   24.0    59   15.5   24.4  10.74 1.1725    117    1    100.0    5 
20/10/14   1:05   14.8   14.8   14.8    87   12.7   8.0     W   0.67  14.0   WNW   13.8   14.9   13.9  1017.2  0.00   0.0   0.012   0.000   23.9    59   15.4   24.4  10.75 1.1728    117    1    100.0    5 
20/10/14   1:10   14.8   14.8   14.8    87   12.7   8.0     W   0.67  15.0     W   13.8   14.9   13.9  1017.2  0.00   0.0   0.012   0.000   23.9    59   15.4   24.4  10.75 1.1729    117    1    100.0    5 
20/10/14   1:15   14.8   14.8   14.8    87   12.7   8.0     W   0.67  14.0     W   13.8   14.9   13.9  1017.3  0.00   0.0   0.012   0.000   23.9    59   15.4   24.4  10.75 1.1729    117    1    100.0    5 
20/10/14   1:20   14.8   14.9   14.8    87   12.7   8.0     W   0.67  13.0     W   13.8   14.9   13.9  1017.3  0.00   0.0   0.012   0.000   23.9    59   15.4   24.4  10.75 1.1730    117    1    100.0    5 
20/10/14   1:25   14.8   14.8   14.8    86   12.5   7.0     W   0.58  13.0     W   14.2   14.8   14.2  1017.2  0.00   0.0   0.012   0.000   23.9    59   15.4   24.3  10.75 1.1732    116    1    100.0    5 
20/10/14   1:30   14.8   14.8   14.7    86   12.5   9.0     W   0.75  15.0     W   13.3   14.8   13.3  1017.2  0.00   0.0   0.012   0.000   23.9    59   15.4   24.3  10.75 1.1731    116    1    100.0    5 
20/10/14   1:35   14.7   14.8   14.7    86   12.4   6.0     W   0.50  13.0     W   14.3   14.7   14.3  1017.2  0.00   0.0   0.013   0.000   23.9    59   15.4   24.3  10.75 1.1731    115    1    100.0    5 
20/10/14   1:40   14.7   14.7   14.7    86   12.3   9.0     W   0.75  14.0     W   13.2   14.7   13.2  1017.1  0.00   0.0   0.013   0.000   23.9    59   15.4   24.3  10.75 1.1730    116    1    100.0    5 
20/10/14   1:45   14.7   14.7   14.7    86   12.3   9.0     W   0.75  17.0   WNW   13.2   14.7   13.2  1017.1  0.00   0.0   0.013   0.000   23.8    59   15.3   24.3  10.75 1.1733    118    1    100.0    5 
20/10/14   1:50   14.7   14.7   14.7    87   12.6   9.0     W   0.75  14.0   WSW   13.3   14.7   13.3  1017.1  0.00   0.0   0.013   0.000   23.8    59   15.3   24.3  10.75 1.1733    116    1    100.0    5 
20/10/14   1:55   14.7   14.7   14.7    87   12.6   8.0     W   0.67  13.0     W   13.7   14.7   13.7  1017.0  0.00   0.0   0.013   0.000   23.8    59   15.3   24.3  10.75 1.1732    117    1    100.0    5 
20/10/14   2:00   14.8   14.8   14.7    87   12.6   8.0     W   0.67  15.0     W   13.8   14.8   13.8  1017.0  0.00   0.0   0.012   0.000   23.8    59   15.3   24.3  10.75 1.1732    116    1    100.0    5 
20/10/14   2:05   14.8   14.8   14.8    88   12.9  13.0     W   1.08  18.0   WSW   12.1   14.9   12.2  1017.0  0.00   0.0   0.012   0.000   23.8    59   15.3   24.2  10.76 1.1735    116    1    100.0    5 
20/10/14   2:10   14.8   14.8   14.8    87   12.7  13.0     W   1.08  18.0     W   12.1   14.9   12.2  1017.2  0.00   0.0   0.012   0.000   23.8    59   15.3   24.2  10.76 1.1737    116    1    100.0    5 
20/10/14   2:15   14.8   14.8   14.8    87   12.6  12.0     W   1.00  21.0   WSW   12.3   14.8   12.3  1017.2  0.00   0.0   0.012   0.000   23.8    59   15.3   24.2  10.76 1.1737    117    1    100.0    5 
20/10/14   2:20   14.7   14.8   14.7    86   12.3  14.0     W   1.17  22.0   WSW   11.7   14.7   11.7  1017.1  0.00   0.0   0.013   0.000   23.7    59   15.2   24.2  10.76 1.1739    117    1    100.0    5 
20/10/14   2:25   14.6   14.7   14.6    86   12.3  11.0     W   0.92  16.0     W   12.4   14.6   12.4  1017.2  0.00   0.0   0.013   0.000   23.7    59   15.2   24.2  10.76 1.1740    116    1    100.0    5 
20/10/14   2:30   14.5   14.6   14.5    86   12.2  11.0     W   0.92  19.0     W   12.3   14.4   12.2  1017.1  0.00   0.0   0.013   0.000   23.7    59   15.2   24.2  10.76 1.1738    116    1    100.0    5 
20/10/14   2:35   14.4   14.5   14.4    86   12.1   9.0     W   0.75  15.0     W   12.9   14.4   12.9  1017.1  0.00   0.0   0.014   0.000   23.7    59   15.2   24.1  10.77 1.1742    117    1    100.0    5 
20/10/14   2:40   14.4   14.4   14.4    85   11.9   9.0     W   0.75  16.0   WNW   12.9   14.3   12.8  1017.1  0.00   0.0   0.014   0.000   23.7    59   15.2   24.2  10.76 1.1738    117    1    100.0    5 
20/10/14   2:45   14.4   14.4   14.4    85   11.9  11.0     W   0.92  15.0     W   12.2   14.3   12.1  1017.0  0.00   0.0   0.014   0.000   23.7    59   15.2   24.1  10.77 1.1740    117    1    100.0    5 
20/10/14   2:50   14.4   14.4   14.3    85   11.9  11.0     W   0.92  17.0   WNW   12.2   14.3   12.1  1016.9  0.00   0.0   0.014   0.000   23.7    59   15.2   24.1  10.77 1.1739    118    1    100.0    5 
20/10/14   2:55   14.4   14.4   14.3    85   11.9   9.0     W   0.75  16.0     W   12.9   14.3   12.8  1016.9  0.00   0.0   0.014   0.000   23.7    59   15.2   24.1  10.77 1.1740    116    1    100.0    5 
20/10/14   3:00   14.3   14.4   14.3    85   11.8  10.0     W   0.83  15.0     W   12.4   14.3   12.4  1017.0  0.00   0.0   0.014   0.000   23.6    59   15.1   24.0  10.77 1.1743    117    1    100.0    5 
20/10/14   3:05   14.3   14.3   14.3    85   11.8  10.0     W   0.83  15.0   WNW   12.4   14.3   12.4  1017.0  0.00   0.0   0.014   0.000   23.6    59   15.1   24.0  10.77 1.1743    116    1    100.0    5 
20/10/14   3:10   14.3   14.4   14.3    85   11.8  10.0     W   0.83  16.0   WSW   12.4   14.3   12.4  1017.1  0.00   0.0   0.014   0.000   23.6    59   15.1   24.0  10.77 1.1744    117    1    100.0    5 
20/10/14   3:15   14.4   14.4   14.3    85   11.9   9.0     W   0.75  13.0     W   12.9   14.3   12.8  1017.0  0.00   0.0   0.014   0.000   23.6    59   15.1   24.0  10.77 1.1743    116    1    100.0    5 
20/10/14   3:20   14.3   14.4   14.3    86   12.0   8.0     W   0.67  13.0   WSW   13.3   14.3   13.2  1017.0  0.00   0.0   0.014   0.000   23.6    59   15.1   23.9  10.77 1.1746    116    1    100.0    5 
20/10/14   3:25   14.3   14.3   14.3    86   12.0   9.0     W   0.75  16.0     W   12.7   14.2   12.7  1016.9  0.00   0.0   0.014   0.000   23.6    59   15.1   23.9  10.77 1.1745    117    1    100.0    5 
20/10/14   3:30   14.3   14.3   14.3    86   12.0  10.0     W   0.83  17.0   WNW   12.4   14.2   12.3  1016.9  0.00   0.0   0.014   0.000   23.6    59   15.1   23.9  10.77 1.1744    117    1    100.0    5 
20/10/14   3:35   14.3   14.3   14.3    86   12.0  11.0     W   0.92  17.0     W   12.1   14.2   12.0  1017.0  0.00   0.0   0.014   0.000   23.5    59   15.0   23.9  10.78 1.1749    117    1    100.0    5 
20/10/14   3:40   14.2   14.3   14.2    85   11.7   9.0     W   0.75  15.0     W   12.7   14.2   12.6  1016.9  0.00   0.0   0.014   0.000   23.5    59   15.0   23.9  10.78 1.1748    116    1    100.0    5 
20/10/14   3:45   14.2   14.2   14.2    86   11.9   9.0     W   0.75  15.0   WSW   12.6   14.1   12.6  1016.9  0.00   0.0   0.014   0.000   23.5    59   15.0   23.9  10.78 1.1747    117    1    100.0    5 
20/10/14   3:50   14.2   14.2   14.2    86   11.9   9.0     W   0.75  15.0     W   12.6   14.1   12.6  1016.9  0.00   0.0   0.014   0.000   23.4    59   15.0   23.8  10.78 1.1750    117    1    100.0    5 
20/10/14   3:55   14.2   14.2   14.2    86   11.9   9.0     W   0.75  13.0     W   12.6   14.1   12.6  1016.9  0.00   0.0   0.014   0.000   23.4    59   15.0   23.8  10.78 1.1750    116    1    100.0    5 
20/10/14   4:00   14.1   14.2   14.1    86   11.8  10.0     W   0.83  17.0     W   12.2   14.1   12.1  1016.9  0.00   0.0   0.015   0.000   23.4    59   15.0   23.8  10.78 1.1751    117    1    100.0    5 
20/10/14   4:05   14.1   14.1   14.1    86   11.7   9.0     W   0.75  14.0     W   12.5   14.0   12.4  1016.8  0.00   0.0   0.015   0.000   23.4    59   15.0   23.8  10.78 1.1749    117    1    100.0    5 
20/10/14   4:10   14.0   14.1   14.0    86   11.7  11.0     W   0.92  19.0   WNW   11.7   13.9   11.7  1016.9  0.00   0.0   0.015   0.000   23.4    59   15.0   23.8  10.78 1.1750    116    1    100.0    5 
20/10/14   4:15   14.0   14.0   14.0    85   11.5  11.0     W   0.92  18.0     W   11.7   13.9   11.7  1016.7  0.00   0.0   0.015   0.000   23.4    59   14.9   23.7  10.79 1.1751    117    1    100.0    5 
20/10/14   4:20   14.0   14.0   14.0    85   11.5  10.0     W   0.83  16.0     W   12.1   13.9   12.0  1016.7  0.00   0.0   0.015   0.000   23.4    59   15.0   23.8  10.78 1.1748    116    1    100.0    5 
20/10/14   4:25   13.9   14.0   13.9    85   11.5   9.0     W   0.75  16.0     W   12.3   13.9   12.3  1016.6  0.00   0.0   0.015   0.000   23.4    59   14.9   23.7  10.79 1.1750    117    1    100.0    5 
20/10/14   4:30   13.9   14.0   13.9    85   11.5   9.0     W   0.75  16.0     W   12.3   13.9   12.3  1016.5  0.00   0.0   0.015   0.000   23.3    59   14.9   23.7  10.79 1.1752    117    1    100.0    5 
20/10/14   4:35   13.9   13.9   13.9    85   11.5   9.0     W   0.75  15.0     W   12.3   13.9   12.3  1016.6  0.00   0.0   0.015   0.000   23.3    59   14.9   23.7  10.79 1.1752    117    1    100.0    5 
20/10/14   4:40   13.9   13.9   13.9    85   11.4   8.0     W   0.67  13.0   WSW   12.7   13.8   12.7  1016.5  0.00   0.0   0.015   0.000   23.3    59   14.9   23.7  10.79 1.1752    117    1    100.0    5 
20/10/14   4:45   13.8   13.9   13.8    86   11.5   8.0     W   0.67  13.0     W   12.7   13.8   12.6  1016.6  0.00   0.0   0.016   0.000   23.3    59   14.9   23.7  10.79 1.1752    116    1    100.0    5 
20/10/14   4:50   13.8   13.8   13.8    86   11.5   7.0     W   0.58  11.0     W   13.0   13.7   12.9  1016.7  0.00   0.0   0.016   0.000   23.3    59   14.8   23.6  10.79 1.1756    117    1    100.0    5 
20/10/14   4:55   13.7   13.8   13.7    86   11.4   6.0   WNW   0.50  12.0     W   13.1   13.7   13.1  1016.7  0.00   0.0   0.016   0.000   23.3    59   14.8   23.6  10.79 1.1757    117    1    100.0    5 
20/10/14   5:00   13.7   13.7   13.7    86   11.4   8.0   WNW   0.67  13.0     W   12.5   13.7   12.4  1016.8  0.00   0.0   0.016   0.000   23.3    59   14.8   23.6  10.79 1.1758    116    1    100.0    5 
20/10/14   5:05   13.7   13.7   13.7    86   11.4   7.0     W   0.58  14.0     W   12.9   13.7   12.8  1016.7  0.00   0.0   0.016   0.000   23.3    59   14.8   23.6  10.79 1.1757    116    1    100.0    5 
20/10/14   5:10   13.7   13.7   13.7    86   11.4   8.0     W   0.67  13.0   WNW   12.5   13.7   12.4  1016.8  0.00   0.0   0.016   0.000   23.2    59   14.8   23.5  10.80 1.1761    116    1    100.0    5 
20/10/14   5:15   13.8   13.8   13.7    87   11.7   8.0     W   0.67  13.0     W   12.6   13.8   12.6  1016.8  0.00   0.0   0.016   0.000   23.2    59   14.8   23.5  10.80 1.1760    117    1    100.0    5 
20/10/14   5:20   13.8   13.8   13.8    87   11.7   8.0     W   0.67  14.0     W   12.7   13.8   12.7  1016.8  0.00   0.0   0.016   0.000   23.2    59   14.8   23.5  10.80 1.1761    116    1    100.0    5 
20/10/14   5:25   13.8   13.8   13.8    86   11.5   7.0     W   0.58  14.0     W   13.1   13.8   13.0  1016.8  0.00   0.0   0.016   0.000   23.2    59   14.8   23.5  10.80 1.1760    117    1    100.0    5 
20/10/14   5:30   13.8   13.8   13.8    87   11.7   6.0     W   0.50  12.0     W   13.2   13.8   13.2  1016.8  0.00   0.0   0.016   0.000   23.2    59   14.8   23.5  10.80 1.1760    116    1    100.0    5 
20/10/14   5:35   13.7   13.8   13.7    87   11.6   8.0     W   0.67  13.0     W   12.5   13.7   12.5  1016.8  0.00   0.0   0.016   0.000   23.2    59   14.7   23.4  10.80 1.1763    117    1    100.0    5 
20/10/14   5:40   13.7   13.7   13.7    87   11.5   7.0     W   0.58  11.0   WSW   12.8   13.7   12.8  1016.8  0.00   0.0   0.016   0.000   23.2    59   14.7   23.4  10.80 1.1763    115    1    100.0    5 
20/10/14   5:45   13.6   13.7   13.6    87   11.5   6.0     W   0.50  10.0   WNW   13.0   13.6   13.0  1016.8  0.00   0.0   0.016   0.000   23.2    59   14.7   23.4  10.80 1.1764    117    1    100.0    5 
20/10/14   5:50   13.6   13.6   13.6    87   11.4   6.0     W   0.50   9.0     W   12.9   13.6   12.9  1016.9  0.00   0.0   0.017   0.000   23.1    59   14.7   23.4  10.81 1.1767    117    1    100.0    5 
20/10/14   5:55   13.5   13.6   13.5    87   11.4   5.0     W   0.42   9.0     W   13.1   13.5   13.1  1016.9  0.00   0.0   0.017   0.000   23.1    59   14.7   23.4  10.81 1.1768    117    1    100.0    5 
20/10/14   6:00   13.4   13.5   13.4    87   11.3   5.0     W   0.42   8.0     W   13.1   13.4   13.1  1016.9  0.00   0.0   0.017   0.000   23.1    59   14.7   23.4  10.81 1.1767    118    1    100.0    5 
20/10/14   6:05   13.4   13.4   13.4    87   11.3   4.0   WNW   0.33   8.0     W   13.3   13.4   13.3  1016.8  0.00   0.0   0.017   0.000   23.1    59   14.7   23.4  10.81 1.1767    117    1    100.0    5 
20/10/14   6:10   13.3   13.4   13.3    87   11.2   5.0     W   0.42   7.0     W   12.9   13.3   12.9  1016.9  0.00   0.0   0.018   0.000   23.1    59   14.7   23.4  10.81 1.1767    117    1    100.0    5 
20/10/14   6:15   13.2   13.3   13.2    88   11.3   4.0   WNW   0.33   8.0     W   13.1   13.2   13.1  1016.9  0.00   0.0   0.018   0.000   23.1    59   14.6   23.3  10.81 1.1771    116    1    100.0    5 
20/10/14   6:20   13.2   13.2   13.2    88   11.2   5.0   WNW   0.42   7.0   WNW   12.7   13.2   12.7  1017.0  0.00   0.0   0.018   0.000   23.1    59   14.6   23.3  10.81 1.1771    117    1    100.0    5 
20/10/14   6:25   13.1   13.2   13.1    88   11.2   4.0   WNW   0.33   7.0   WNW   12.9   13.1   12.9  1016.9  0.00   0.0   0.018   0.000   23.1    59   14.6   23.3  10.81 1.1771    117    1    100.0    5 
20/10/14   6:30   13.1   13.1   13.1    88   11.1   3.0   WNW   0.25   5.0   WNW   13.1   13.1   13.1  1017.0  0.00   0.0   0.018   0.000   23.0    59   14.6   23.2  10.81 1.1774    117    1    100.0    5 
20/10/14   6:35   13.1   13.1   13.1    89   11.3   3.0   WNW   0.25   6.0   WNW   13.1   13.1   13.1  1016.9  0.00   0.0   0.018   0.000   23.1    59   14.6   23.3  10.81 1.1771    117    1    100.0    5 
20/10/14   6:40   13.0   13.1   13.0    89   11.2   4.0   WNW   0.33   7.0     W   12.8   13.1   12.9  1016.9  0.00   0.0   0.019   0.000   23.0    59   14.6   23.2  10.81 1.1773    117    1    100.0    5 
20/10/14   6:45   13.0   13.0   13.0    89   11.2   4.0   WNW   0.33   8.0   WNW   12.8   13.1   12.9  1016.9  0.00   0.0   0.019   0.000   23.1    59   14.6   23.3  10.81 1.1771    116    1    100.0    5 
20/10/14   6:50   12.9   13.0   12.9    89   11.2   4.0     W   0.33   6.0     W   12.8   13.0   12.8  1016.8  0.00   0.0   0.019   0.000   23.0    59   14.6   23.2  10.81 1.1773    117    1    100.0    5 
20/10/14   6:55   12.9   12.9   12.9    89   11.2   3.0   WNW   0.25   5.0   WNW   12.9   13.0   13.0  1016.9  0.00   0.0   0.019   0.000   23.0    59   14.6   23.2  10.81 1.1774    116    1    100.0    5 
20/10/14   7:00   12.9   12.9   12.9    89   11.1   4.0     W   0.33   7.0   WSW   12.7   12.9   12.7  1016.9  0.00   0.0   0.019   0.000   23.0    59   14.6   23.2  10.81 1.1774    117    1    100.0    5 
20/10/14   7:05   12.8   12.9   12.8    89   11.1   4.0     W   0.33   8.0     W   12.6   12.9   12.7  1017.0  0.00   0.0   0.019   0.000   23.0    59   14.6   23.2  10.81 1.1775    118    1    100.0    5 
20/10/14   7:10   12.8   12.8   12.8    89   11.0   4.0   WNW   0.33   8.0   WNW   12.6   12.8   12.6  1017.1  0.00   0.0   0.019   0.000   22.9    59   14.5   23.2  10.82 1.1778    114    1    100.0    5 
20/10/14   7:15   12.8   12.8   12.8    90   11.2   6.0     W   0.50  10.0     W   12.1   12.9   12.1  1017.1  0.00   0.0   0.019   0.000   22.9    59   14.5   23.2  10.82 1.1778    117    1    100.0    5 
20/10/14   7:20   12.9   12.9   12.8    90   11.3   6.0     W   0.50  10.0     W   12.1   12.9   12.2  1017.0  0.00   0.0   0.019   0.000   22.9    59   14.5   23.2  10.82 1.1778    117    1    100.0    5 
20/10/14   7:25   12.9   12.9   12.9    90   11.3   6.0   WNW   0.50  11.0     W   12.1   12.9   12.2  1017.0  0.00   0.0   0.019   0.000   22.9    59   14.5   23.2  10.82 1.1777    114    1    100.0    5 
20/10/14   7:30   12.9   12.9   12.9    90   11.3   5.0   WNW   0.42   9.0   WNW   12.5   13.0   12.6  1017.0  0.00   0.0   0.019   0.000   22.9    59   14.5   23.1  10.82 1.1780    117    1    100.0    5 
20/10/14   7:35   12.9   12.9   12.9    90   11.3   6.0   WNW   0.50   9.0   WNW   12.2   13.0   12.3  1017.0  0.00   0.0   0.019   0.000   22.9    59   14.5   23.1  10.82 1.1780    115    1    100.0    5 
20/10/14   7:40   12.9   12.9   12.9    90   11.3   5.0   WNW   0.42  10.0     W   12.5   13.0   12.6  1017.0  0.00   0.0   0.019   0.000   22.9    59   14.5   23.1  10.82 1.1780    116    1    100.0    5 
20/10/14   7:45   12.9   12.9   12.9    90   11.3   5.0   WNW   0.42   8.0     W   12.4   12.9   12.4  1016.9  0.00   0.0   0.019   0.000   22.9    59   14.5   23.1  10.82 1.1780    117    1    100.0    5 
20/10/14   7:50   12.9   12.9   12.9    90   11.3   5.0   WNW   0.42   8.0   WNW   12.4   12.9   12.4  1017.1  0.00   0.0   0.019   0.000   22.8    59   14.4   23.0  10.83 1.1784    116    1    100.0    5 
20/10/14   7:55   12.9   12.9   12.9    90   11.3   4.0   WNW   0.33   7.0   WNW   12.7   12.9   12.7  1017.0  0.00   0.0   0.019   0.000   22.8    59   14.4   23.0  10.83 1.1783    117    1    100.0    5 
20/10/14   8:00   12.8   12.9   12.8    90   11.2   3.0    NW   0.25   6.0   WNW   12.8   12.9   12.9  1017.1  0.00   0.0   0.019   0.000   22.8    59   14.4   23.0  10.83 1.1785    117    1    100.0    5 
20/10/14   8:05   12.8   12.8   12.8    90   11.2   3.0   WNW   0.25   7.0   WNW   12.8   12.9   12.9  1017.0  0.00   0.0   0.019   0.000   22.8    59   14.4   23.0  10.83 1.1784    117    1    100.0    5 
20/10/14   8:10   12.8   12.8   12.8    90   11.2   3.0   WNW   0.25   5.0     W   12.8   12.9   12.9  1017.1  0.00   0.0   0.019   0.000   22.8    59   14.3   22.9  10.83 1.1787    117    1    100.0    5 
20/10/14   8:15   12.8   12.8   12.8    90   11.2   3.0    NW   0.25   6.0   WNW   12.8   12.9   12.9  1017.1  0.00   0.0   0.019   0.000   22.8    59   14.3   22.9  10.83 1.1787    117    1    100.0    5 
20/10/14   8:20   12.9   12.9   12.8    90   11.3   3.0   WNW   0.25   6.0    NW   12.9   12.9   12.9  1017.1  0.00   0.0   0.019   0.000   22.8    59   14.3   22.9  10.83 1.1787    114    1    100.0    5 
20/10/14   8:25   12.9   12.9   12.9    90   11.3   3.0    NW   0.25   5.0    NW   12.9   12.9   12.9  1017.2  0.00   0.0   0.019   0.000   22.8    59   14.3   22.9  10.83 1.1788    117    1    100.0    5 
20/10/14   8:30   12.9   12.9   12.9    90   11.3   2.0    NW   0.17   4.0    NW   12.9   12.9   12.9  1017.1  0.00   0.0   0.019   0.000   22.8    59   14.3   22.9  10.83 1.1788    117    1    100.0    5 
20/10/14   8:35   12.9   12.9   12.9    90   11.3   1.0    NW   0.08   3.0    NW   12.9   12.9   12.9  1017.2  0.00   0.0   0.019   0.000   22.8    59   14.3   22.9  10.83 1.1789    117    1    100.0    5 
20/10/14   8:40   12.9   12.9   12.8    90   11.3   2.0    NW   0.17   4.0    NW   12.9   12.9   12.9  1017.2  0.00   0.0   0.019   0.000   22.7    58   14.0   22.8  10.63 1.1795    116    1    100.0    5 
20/10/14   8:45   12.9   12.9   12.9    91   11.5   2.0    NW   0.17   4.0    NW   12.9   13.0   13.0  1017.3  0.00   0.0   0.019   0.000   22.6    58   13.9   22.7  10.64 1.1802    117    1    100.0    5 
20/10/14   8:50   13.1   13.1   12.9    90   11.5   3.0    NW   0.25   6.0    NW   13.1   13.1   13.1  1017.4  0.00   0.0   0.018   0.000   22.6    58   13.9   22.6  10.65 1.1806    117    1    100.0    5 
20/10/14   8:55   13.1   13.1   13.1    90   11.5   3.0    NW   0.25   8.0     W   13.1   13.2   13.2  1017.4  0.00   0.0   0.018   0.000   22.4    57   13.5   22.4  10.45 1.1814    116    1    100.0    5 
20/10/14   9:00   13.2   13.2   13.1    90   11.6   4.0   WNW   0.33   6.0   WNW   13.0   13.2   13.1  1017.4  0.00   0.0   0.018   0.000   22.4    57   13.5   22.4  10.45 1.1814    115    1    100.0    5 
20/10/14   9:05   13.2   13.2   13.2    91   11.7   3.0   WNW   0.25   7.0   WNW   13.2   13.2   13.2  1017.3  0.00   0.0   0.018   0.000   22.4    57   13.5   22.3  10.46 1.1816    115    1    100.0    5 
20/10/14   9:10   13.2   13.2   13.2    91   11.8   3.0    NW   0.25   5.0   WNW   13.2   13.3   13.3  1017.4  0.00   0.0   0.018   0.000   22.3    57   13.4   22.2  10.46 1.1820    118    1    100.0    5 
20/10/14   9:15   13.3   13.3   13.2    91   11.8   2.0   WNW   0.17   5.0    NW   13.3   13.3   13.3  1017.4  0.00   0.0   0.018   0.000   22.3    58   13.7   22.2  10.66 1.1817    117    1    100.0    5 
20/10/14   9:20   13.4   13.4   13.3    91   11.9   3.0   WNW   0.25   6.0   WNW   13.4   13.4   13.4  1017.4  0.00   0.0   0.017   0.000   22.4    58   13.7   22.3  10.66 1.1815    115    1    100.0    5 
20/10/14   9:25   13.6   13.6   13.4    91   12.2   3.0   WNW   0.25   5.0   WNW   13.6   13.7   13.7  1017.5  0.00   0.0   0.016   0.000   22.4    58   13.8   22.4  10.65 1.1813    116    1    100.0    5 
20/10/14   9:30   14.0   14.0   13.6    91   12.6   3.0     W   0.25   6.0     W   14.0   14.1   14.1  1017.5  0.00   0.0   0.015   0.000   22.4    58   13.7   22.3  10.66 1.1815    117    1    100.0    5 
20/10/14   9:35   14.2   14.2   14.0    90   12.6   3.0   WNW   0.25   8.0   WNW   14.2   14.3   14.3  1017.5  0.00   0.0   0.014   0.000   22.4    58   13.7   22.3  10.66 1.1816    117    1    100.0    5 
20/10/14   9:40   14.4   14.4   14.2    90   12.8   6.0     W   0.50  10.0     W   13.9   14.4   14.0  1017.6  0.00   0.0   0.014   0.000   22.4    57   13.5   22.3  10.46 1.1819    117    1    100.0    5 
20/10/14   9:45   14.6   14.6   14.4    89   12.8   5.0   WNW   0.42   9.0   WNW   14.3   14.6   14.4  1017.6  0.00   0.0   0.013   0.000   22.3    57   13.4   22.2  10.46 1.1823    117    1    100.0    5 
20/10/14   9:50   14.8   14.8   14.6    89   13.0   6.0   WNW   0.50  10.0     W   14.4   14.8   14.4  1017.6  0.00   0.0   0.012   0.000   22.3    57   13.3   22.1  10.47 1.1826    116    1    100.0    5 
20/10/14   9:55   15.1   15.1   14.8    88   13.1   5.0     W   0.42  10.0     W   15.0   15.2   15.1  1017.6  0.00   0.0   0.011   0.000   22.2    57   13.3   22.1  10.47 1.1828    117    1    100.0    5 
20/10/14  10:00   15.2   15.2   15.1    87   13.1   8.0     W   0.67  13.0     W   14.3   15.3   14.4  1017.5  0.00   0.0   0.011   0.000   22.2    57   13.2   21.9  10.47 1.1830    117    1    100.0    5 
20/10/14  10:05   15.2   15.2   15.2    87   13.0   9.0   WSW   0.75  14.0   WSW   13.8   15.2   13.9  1017.6  0.00   0.0   0.011   0.000   22.1    57   13.2   21.9  10.48 1.1834    115    1    100.0    5 
20/10/14  10:10   15.2   15.2   15.1    86   12.8  10.0     W   0.83  14.0     W   13.4   15.2   13.5  1017.6  0.00   0.0   0.011   0.000   22.0    57   13.1   21.7  10.49 1.1840    117    1    100.0    5 
20/10/14  10:15   15.2   15.2   15.2    85   12.7  10.0     W   0.83  15.0   WSW   13.4   15.2   13.4  1017.6  0.00   0.0   0.011   0.000   21.9    57   13.0   21.6  10.49 1.1842    118    1    100.0    5 
20/10/14  10:20   15.1   15.2   15.1    85   12.6  11.0     W   0.92  18.0     W   12.9   15.1   12.9  1017.6  0.00   0.0   0.011   0.000   21.9    57   13.0   21.6  10.49 1.1846    116    1    100.0    5 
20/10/14  10:25   15.1   15.1   15.1    84   12.4   9.0     W   0.75  14.0     W   13.7   15.1   13.7  1017.6  0.00   0.0   0.011   0.000   21.9    58   13.3   21.6  10.69 1.1842    117    1    100.0    5 
20/10/14  10:30   15.2   15.2   15.1    84   12.5   8.0     W   0.67  14.0   WSW   14.3   15.2   14.3  1017.6  0.00   0.0   0.011   0.000   21.9    59   13.6   21.7  10.89 1.1837    117    1    100.0    5 
20/10/14  10:35   15.4   15.4   15.2    84   12.7   7.0     W   0.58  13.0   WNW   14.9   15.4   14.9  1017.7  0.00   0.0   0.010   0.000   22.1    59   13.7   21.9  10.88 1.1832    115    1    100.0    5 
20/10/14  10:40   15.5   15.5   15.4    84   12.8   7.0     W   0.58  13.0     W   15.1   15.6   15.1  1017.8  0.00   0.0   0.010   0.000   22.2    59   13.8   22.1  10.87 1.1827    117    1    100.0    5 
20/10/14  10:45   15.6   15.6   15.5    84   12.9   6.0     W   0.50  10.0   WSW   15.3   15.6   15.4  1017.7  0.00   0.0   0.010   0.000   22.2    59   13.8   22.1  10.87 1.1823    117    1    100.0    5 
20/10/14  10:50   15.6   15.6   15.5    83   12.7   9.0     W   0.75  13.0     W   14.3   15.6   14.3  1017.7  0.00   0.0   0.010   0.000   22.3    59   13.9   22.2  10.87 1.1820    116    1    100.0    5 
20/10/14  10:55   15.8   15.8   15.6    83   12.9   7.0     W   0.58  11.0   WSW   15.4   15.8   15.4  1017.6  0.00   0.0   0.009   0.000   22.3    59   13.9   22.3  10.86 1.1817    116    1    100.0    5 
20/10/14  11:00   15.8   15.8   15.8    83   12.9   9.0     W   0.75  14.0   WNW   14.6   15.9   14.7  1017.8  0.00   0.0   0.009   0.000   22.4    59   14.0   22.4  10.86 1.1816    117    1    100.0    5 
20/10/14  11:05   15.8   15.8   15.8    82   12.8   9.0   WSW   0.75  13.0   WSW   14.6   15.8   14.6  1017.7  0.00   0.0   0.009   0.000   22.5    59   14.1   22.6  10.85 1.1809    117    1    100.0    5 
20/10/14  11:10   15.8   15.8   15.7    83   12.9  11.0   WSW   0.92  14.0   WSW   13.8   15.8   13.8  1017.8  0.00   0.0   0.009   0.000   22.5    59   14.1   22.6  10.85 1.1810    117    1    100.0    5 
20/10/14  11:15   15.6   15.7   15.6    83   12.7  10.0     W   0.83  15.0     W   13.9   15.6   13.9  1017.7  0.00   0.0   0.010   0.000   22.6    59   14.1   22.6  10.85 1.1806    118    1    100.0    5 
20/10/14  11:20   15.5   15.6   15.5    83   12.6  10.0   WSW   0.83  16.0   WSW   13.8   15.5   13.8  1017.7  0.00   0.0   0.010   0.000   22.6    59   14.2   22.7  10.84 1.1803    116    1    100.0    5 
20/10/14  11:25   15.5   15.5   15.5    83   12.6  12.0   WSW   1.00  16.0   WSW   13.2   15.5   13.2  1017.6  0.00   0.0   0.010   0.000   22.6    59   14.2   22.7  10.84 1.1802    116    1    100.0    5 
20/10/14  11:30   15.7   15.7   15.4    84   13.0  12.0   WSW   1.00  15.0     W   13.3   15.7   13.4  1017.6  0.00   0.0   0.009   0.000   22.7    59   14.2   22.8  10.84 1.1799    116    1    100.0    5 
20/10/14  11:35   15.9   15.9   15.7    83   13.0  11.0   WSW   0.92  19.0   WSW   13.9   15.9   13.9  1017.5  0.00   0.0   0.008   0.000   22.7    59   14.3   22.9  10.83 1.1795    116    1    100.0    5 
20/10/14  11:40   16.0   16.0   15.9    82   12.9  13.0   WSW   1.08  16.0   WSW   13.4   16.1   13.5  1017.5  0.00   0.0   0.008   0.000   22.8    59   14.3   22.9  10.83 1.1793    117    1    100.0    5 
20/10/14  11:45   16.0   16.1   16.0    82   12.9  11.0   WSW   0.92  14.0   WSW   14.1   16.1   14.1  1017.4  0.00   0.0   0.008   0.000   22.8    59   14.4   23.0  10.83 1.1788    117    1    100.0    5 
20/10/14  11:50   16.1   16.1   15.9    82   13.0  12.0   WSW   1.00  16.0   WSW   13.8   16.1   13.8  1017.4  0.00   0.0   0.008   0.000   22.9    59   14.5   23.1  10.82 1.1785    117    1    100.0    5 
20/10/14  11:55   15.8   16.1   15.8    82   12.8  12.0   WSW   1.00  16.0   WSW   13.6   15.8   13.6  1017.4  0.00   0.0   0.009   0.000   22.9    59   14.5   23.2  10.82 1.1782    117    1    100.0    5 
20/10/14  12:00   15.9   15.9   15.8    82   12.9  11.0   WSW   0.92  15.0   WSW   13.9   16.0   14.0  1017.5  0.00   0.0   0.008   0.000   22.9    59   14.5   23.2  10.82 1.1784    117    1    100.0    5 
20/10/14  12:05   15.8   15.9   15.8    82   12.7  12.0   WSW   1.00  15.0   WSW   13.4   15.8   13.4  1017.5  0.00   0.0   0.009   0.000   23.1    59   14.6   23.3  10.81 1.1777    117    1    100.0    5 
20/10/14  12:10   15.8   15.8   15.8    83   12.9  10.0   WSW   0.83  14.0   WSW   14.2   15.9   14.3  1017.3  0.00   0.0   0.009   0.000   23.1    60   14.9   23.4  10.98 1.1769    116    1    100.0    5 
20/10/14  12:15   16.1   16.1   15.8    83   13.2  12.0   WSW   1.00  15.0   WSW   13.8   16.1   13.8  1017.2  0.00   0.0   0.008   0.000   23.2    60   15.0   23.5  10.98 1.1765    116    1    100.0    5 
20/10/14  12:20   16.3   16.3   16.1    82   13.2  12.0   WSW   1.00  16.0   WSW   14.0   16.3   14.1  1017.2  0.00   0.0   0.007   0.000   23.2    59   14.8   23.5  10.80 1.1765    118    1    100.0    5 
20/10/14  12:25   16.3   16.4   16.3    81   13.1  12.0   WSW   1.00  15.0   WSW   14.1   16.4   14.1  1017.1  0.00   0.0   0.007   0.000   23.3    60   15.1   23.7  10.97 1.1759    117    1    100.0    5 
20/10/14  12:30   16.4   16.4   16.3    82   13.3  12.0   WSW   1.00  16.0   WSW   14.2   16.5   14.3  1017.1  0.00   0.0   0.007   0.000   23.3    60   15.1   23.7  10.97 1.1755    117    1    100.0    5 
20/10/14  12:35   16.6   16.6   16.4    81   13.3  12.0   WSW   1.00  15.0   WSW   14.3   16.7   14.4  1017.0  0.00   0.0   0.006   0.000   23.4    60   15.2   23.8  10.97 1.1749    115    1    100.0    5 
20/10/14  12:40   16.6   16.6   16.6    79   12.9  13.0   WSW   1.08  17.0   WSW   14.1   16.6   14.2  1017.0  0.00   0.0   0.006   0.000   23.5    59   15.0   23.9  10.78 1.1749    117    1    100.0    5 
20/10/14  12:45   16.4   16.6   16.3    80   12.9  16.0   WSW   1.33  19.0   WSW   13.3   16.4   13.4  1017.0  0.00   0.0   0.007   0.000   23.6    59   15.1   24.0  10.77 1.1743    116    1    100.0    5 
20/10/14  12:50   16.6   16.6   16.4    81   13.3  13.0   WSW   1.08  19.0   WSW   14.2   16.7   14.3  1016.9  0.00   0.0   0.006   0.000   23.7    60   15.4   24.1  10.96 1.1736    117    1    100.0    5 
20/10/14  12:55   16.9   16.9   16.6    79   13.3  10.0   WSW   0.83  14.0   WSW   15.5   17.1   15.6  1016.9  0.00   0.0   0.005   0.000   23.8    59   15.3   24.2  10.76 1.1734    117    1    100.0    5 
20/10/14  13:00   17.1   17.1   17.0    79   13.4  12.0   WSW   1.00  17.0   WSW   14.9   17.2   15.0  1016.9  0.00   0.0   0.004   0.000   23.8    59   15.3   24.3  10.75 1.1731    117    1    100.0    5 
20/10/14  13:05   16.8   17.0   16.8    78   13.0  12.0     W   1.00  16.0   WSW   14.7   16.9   14.7  1016.8  0.00   0.0   0.005   0.000   23.9    59   15.4   24.3  10.75 1.1727    117    1    100.0    5 
20/10/14  13:10   17.1   17.1   16.8    78   13.2  10.0     W   0.83  16.0   WSW   15.6   17.1   15.7  1016.8  0.00   0.0   0.004   0.000   23.9    60   15.7   24.4  10.95 1.1720    116    1    100.0    5 
20/10/14  13:15   17.2   17.3   17.1    77   13.2  12.0   WSW   1.00  17.0   WSW   15.1   17.3   15.2  1016.7  0.00   0.0   0.004   0.000   24.0    60   15.8   24.5  10.94 1.1716    117    1    100.0    5 
20/10/14  13:20   16.8   17.3   16.8    78   13.0  14.0   WSW   1.17  20.0   WSW   14.2   16.9   14.2  1016.7  0.20   0.0   0.005   0.000   24.1    60   15.8   24.5  10.94 1.1713    116    1    100.0    5 
20/10/14  13:25   16.7   16.8   16.7    78   12.8  15.0   WSW   1.25  19.0   WSW   13.8   16.7   13.8  1016.6  0.00   0.0   0.006   0.000   24.1    60   15.9   24.6  10.93 1.1709    116    1    100.0    5 
20/10/14  13:30   16.4   16.7   16.4    79   12.8  16.0   WSW   1.33  21.0   WSW   13.4   16.4   13.4  1016.5  0.00   0.0   0.007   0.000   24.2    59   15.6   24.6  10.73 1.1708    117    1    100.0    5 
20/10/14  13:35   16.7   16.7   16.4    78   12.8  11.0   WSW   0.92  16.0   WSW   14.8   16.7   14.8  1016.4  0.00   0.0   0.006   0.000   24.2    59   15.7   24.6  10.73 1.1704    116    1    100.0    5 
20/10/14  13:40   16.4   16.7   16.4    78   12.6  16.0   WSW   1.33  21.0   WSW   13.4   16.4   13.4  1016.4  0.00   0.0   0.007   0.000   24.3    59   15.8   24.7  10.72 1.1701    116    1    100.0    5 
20/10/14  13:45   16.5   16.6   16.4    79   12.8  15.0   WSW   1.25  21.0   WSW   13.6   16.6   13.7  1016.3  0.00   0.0   0.006   0.000   24.3    59   15.8   24.7  10.72 1.1697    116    1    100.0    5 
20/10/14  13:50   16.2   16.5   16.2    77   12.2  17.0   WSW   1.42  23.0   WSW   12.9   16.1   12.8  1016.3  0.00   0.0   0.007   0.000   24.4    59   15.9   24.7  10.71 1.1694    116    1    100.0    5 
20/10/14  13:55   16.4   16.4   16.2    78   12.5  16.0   WSW   1.33  21.0   WSW   13.3   16.4   13.3  1016.2  0.00   0.0   0.007   0.000   24.4    59   15.9   24.8  10.71 1.1690    117    1    100.0    5 
20/10/14  14:00   16.7   16.7   16.4    78   12.8  16.0   WSW   1.33  21.0   WSW   13.6   16.7   13.6  1016.1  0.00   0.0   0.006   0.000   24.5    59   16.0   24.8  10.71 1.1686    117    1    100.0    5 
20/10/14  14:05   16.7   16.7   16.7    76   12.4  17.0   WSW   1.42  21.0   WSW   13.4   16.6   13.4  1016.0  0.00   0.0   0.006   0.000   24.5    59   16.0   24.8  10.71 1.1686    117    1    100.0    5 
20/10/14  14:10   16.5   16.7   16.4    77   12.5  19.0   WSW   1.58  23.0   WSW   13.0   16.4   12.9  1016.0  0.00   0.0   0.006   0.000   24.5    59   16.0   24.8  10.71 1.1685    115    1    100.0    5 
20/10/14  14:15   16.5   16.6   16.5    74   11.8  19.0   WSW   1.58  23.0   WSW   13.0   16.3   12.8  1015.9  0.00   0.0   0.006   0.000   24.6    59   16.0   24.9  10.70 1.1682    116    1    100.0    5 
20/10/14  14:20   16.6   16.6   16.5    75   12.2  18.0   WSW   1.50  24.0     W   13.2   16.5   13.1  1015.8  0.00   0.0   0.006   0.000   24.6    59   16.1   24.9  10.70 1.1677    117    1    100.0    5 
20/10/14  14:25   16.8   16.8   16.6    76   12.5  16.0   WSW   1.33  24.0   WSW   13.7   16.7   13.7  1015.8  0.00   0.0   0.005   0.000   24.6    59   16.1   24.9  10.70 1.1677    117    1    100.0    5 
20/10/14  14:30   16.7   16.8   16.6    77   12.6  18.0   WSW   1.50  23.0   WSW   13.3   16.7   13.3  1015.7  0.00   0.0   0.006   0.000   24.7    59   16.1   25.1  10.69 1.1673    117    1    100.0    5 
20/10/14  14:35   16.6   16.7   16.6    74   11.9  19.0   WSW   1.58  23.0   WSW   13.1   16.4   12.9  1015.6  0.00   0.0   0.006   0.000   24.7    59   16.1   25.1  10.69 1.1673    116    1    100.0    5 
20/10/14  14:40   16.6   16.7   16.5    74   11.9  18.0   WSW   1.50  23.0   WSW   13.2   16.4   13.0  1015.5  0.00   0.0   0.006   0.000   24.7    59   16.2   25.1  10.69 1.1669    117    1    100.0    5 
20/10/14  14:45   16.6   16.6   16.6    74   11.9  19.0   WSW   1.58  23.0   WSW   13.1   16.4   12.9  1015.5  0.00   0.0   0.006   0.000   24.7    59   16.2   25.1  10.69 1.1669    117    1    100.0    5 
20/10/14  14:50   16.5   16.6   16.5    74   11.8  19.0   WSW   1.58  24.0   WSW   13.0   16.3   12.8  1015.5  0.00   0.0   0.006   0.000   24.7    59   16.2   25.1  10.69 1.1668    117    1    100.0    5 
20/10/14  14:55   16.6   16.6   16.5    74   12.0  18.0   WSW   1.50  23.0   WSW   13.2   16.4   13.1  1015.5  0.00   0.0   0.006   0.000   24.7    59   16.2   25.1  10.69 1.1668    117    1    100.0    5 
20/10/14  15:00   16.6   16.7   16.6    74   12.0  18.0   WSW   1.50  23.0   WSW   13.2   16.4   13.1  1015.4  0.00   0.0   0.006   0.000   24.7    59   16.2   25.1  10.69 1.1667    117    1    100.0    5 
20/10/14  15:05   16.5   16.6   16.5    75   12.1  20.0   WSW   1.67  24.0   WSW   12.8   16.4   12.7  1015.3  0.00   0.0   0.006   0.000   24.8    59   16.2   25.2  10.69 1.1663    116    1    100.0    5 
20/10/14  15:10   16.2   16.5   16.2    75   11.7  20.0   WSW   1.67  24.0   WSW   12.4   16.0   12.3  1015.3  0.00   0.0   0.008   0.000   24.8    58   16.0   25.1  10.49 1.1667    117    1    100.0    5 
20/10/14  15:15   16.1   16.2   16.1    78   12.3  17.0   WSW   1.42  22.0   WSW   12.8   16.1   12.8  1015.2  0.00   0.0   0.008   0.000   24.8    58   16.0   25.1  10.49 1.1665    116    1    100.0    5 
20/10/14  15:20   15.9   16.1   15.9    78   12.1  19.0   WSW   1.58  24.0   WSW   12.3   15.9   12.3  1015.2  0.00   0.0   0.008   0.000   24.8    57   15.7   25.1  10.29 1.1669    117    1    100.0    5 
20/10/14  15:25   15.8   16.0   15.8    77   11.8  20.0   WSW   1.67  24.0   WSW   12.1   15.7   12.0  1015.2  0.00   0.0   0.009   0.000   24.8    57   15.7   25.1  10.29 1.1669    116    1    100.0    5 
20/10/14  15:30   15.8   15.8   15.7    79   12.1  20.0   WSW   1.67  25.0   WSW   12.0   15.7   11.9  1015.0  0.00   0.0   0.009   0.000   24.8    56   15.4   25.0  10.19 1.1671    117    1    100.0    5 
20/10/14  15:35   15.5   15.8   15.5    80   12.1  16.0   WSW   1.33  25.0   WSW   12.3   15.4   12.2  1015.1  0.00   0.0   0.010   0.000   24.8    56   15.4   25.0  10.19 1.1672    117    1    100.0    5 
20/10/14  15:40   15.3   15.5   15.3    80   11.8  11.0     W   0.92  19.0   WNW   13.2   15.2   13.1  1015.2  0.00   0.0   0.011   0.000   24.8    57   15.7   25.1  10.29 1.1669    117    1    100.0    5 
20/10/14  15:45   15.1   15.2   15.1    82   12.1   9.0     W   0.75  18.0   WNW   13.7   15.1   13.7  1015.2  0.00   0.0   0.011   0.000   24.8    57   15.7   25.1  10.29 1.1669    117    1    100.0    5 
20/10/14  15:50   15.0   15.1   15.0    81   11.8  10.0     W   0.83  14.0     W   13.2   14.9   13.1  1015.1  0.00   0.0   0.012   0.000   24.7    57   15.6   25.0  10.29 1.1671    117    1    100.0    5 
20/10/14  15:55   15.0   15.0   14.9    82   12.0   7.0   WNW   0.58  12.0   WNW   14.4   14.9   14.4  1015.1  0.00   0.0   0.012   0.000   24.7    57   15.6   25.0  10.29 1.1671    117    1    100.0    5 
20/10/14  16:00   15.0   15.0   15.0    82   12.0   8.0     W   0.67  12.0   WNW   14.1   14.9   14.0  1015.1  0.00   0.0   0.012   0.000   24.7    57   15.6   24.9  10.29 1.1674    117    1    100.0    5 
20/10/14  16:05   15.0   15.0   15.0    82   12.0   8.0     W   0.67  16.0     W   14.1   14.9   14.0  1015.1  0.00   0.0   0.012   0.000   24.7    57   15.6   24.9  10.29 1.1673    117    1    100.0    5 
20/10/14  16:10   14.9   14.9   14.9    82   11.8  10.0     W   0.83  17.0     W   13.1   14.8   13.1  1015.1  0.00   0.0   0.012   0.000   24.7    57   15.6   24.9  10.29 1.1673    117    1    100.0    5 
20/10/14  16:15   14.8   14.9   14.8    81   11.5  10.0     W   0.83  17.0   WNW   12.9   14.7   12.8  1015.0  0.00   0.0   0.012   0.000   24.6    56   15.2   24.8  10.20 1.1679    115    1    100.0    5 
20/10/14  16:20   14.8   14.8   14.8    81   11.6   9.0     W   0.75  14.0     W   13.4   14.7   13.3  1015.0  0.00   0.0   0.012   0.000   24.6    56   15.2   24.8  10.20 1.1678    115    1    100.0    5 
20/10/14  16:25   14.9   14.9   14.8    80   11.5   8.0     W   0.67  15.0     W   13.9   14.8   13.8  1015.0  0.00   0.0   0.012   0.000   24.6    56   15.2   24.8  10.20 1.1681    116    1    100.0    5 
20/10/14  16:30   15.1   15.1   14.9    80   11.6   9.0     W   0.75  17.0     W   13.7   14.9   13.6  1014.9  0.00   0.0   0.011   0.000   24.6    56   15.2   24.8  10.20 1.1681    116    1    100.0    5 
20/10/14  16:35   15.3   15.3   15.1    79   11.7   8.0     W   0.67  12.0     W   14.4   15.2   14.3  1014.9  0.00   0.0   0.011   0.000   24.6    56   15.2   24.8  10.20 1.1680    116    1    100.0    5 
20/10/14  16:40   15.3   15.3   15.3    79   11.7   9.0     W   0.75  15.0   WSW   14.0   15.2   13.9  1014.9  0.00   0.0   0.010   0.000   24.6    56   15.2   24.8  10.20 1.1680    117    1    100.0    5 
20/10/14  16:45   15.3   15.3   15.3    80   11.9  10.0     W   0.83  16.0     W   13.6   15.3   13.6  1014.8  0.00   0.0   0.010   0.000   24.6    56   15.2   24.8  10.20 1.1680    117    1    100.0    5 
20/10/14  16:50   15.3   15.3   15.3    80   11.8  13.0     W   1.08  23.0   WSW   12.6   15.2   12.5  1014.9  0.00   0.0   0.011   0.000   24.6    56   15.2   24.8  10.20 1.1681    116    1    100.0    5 
20/10/14  16:55   15.3   15.3   15.3    80   11.8  14.0     W   1.17  21.0   WSW   12.4   15.2   12.3  1014.9  0.00   0.0   0.011   0.000   24.5    55   14.9   24.7  10.01 1.1687    117    1    100.0    5 
20/10/14  17:00   15.3   15.3   15.2    80   11.8  15.0     W   1.25  23.0   WSW   12.2   15.2   12.1  1014.9  0.00   0.0   0.011   0.000   24.5    55   14.9   24.7  10.01 1.1687    116    1    100.0    5 
20/10/14  17:05   15.3   15.3   15.3    80   11.8  15.0     W   1.25  22.0   WSW   12.2   15.2   12.1  1014.8  0.00   0.0   0.011   0.000   24.4    55   14.8   24.6  10.01 1.1689    117    1    100.0    5 
20/10/14  17:10   15.3   15.3   15.3    80   11.8  14.0     W   1.17  20.0     W   12.4   15.2   12.3  1014.8  0.00   0.0   0.011   0.000   24.4    55   14.8   24.6  10.01 1.1689    116    1    100.0    5 
20/10/14  17:15   15.2   15.3   15.2    80   11.8  14.0     W   1.17  21.0   WSW   12.3   15.1   12.2  1014.8  0.00   0.0   0.011   0.000   24.4    55   14.8   24.6  10.01 1.1691    116    1    100.0    5 
20/10/14  17:20   15.2   15.2   15.2    80   11.8  11.0     W   0.92  20.0   WSW   13.1   15.1   13.0  1014.8  0.00   0.0   0.011   0.000   24.4    55   14.8   24.6  10.01 1.1691    117    1    100.0    5 
20/10/14  17:25   15.3   15.3   15.2    81   12.0  12.0     W   1.00  19.0     W   12.9   15.2   12.8  1014.7  0.00   0.0   0.011   0.000   24.4    55   14.8   24.6  10.01 1.1690    117    1    100.0    5 
20/10/14  17:30   15.2   15.3   15.2    80   11.7  14.0     W   1.17  23.0   WSW   12.3   15.1   12.2  1014.8  0.00   0.0   0.011   0.000   24.4    55   14.8   24.6  10.01 1.1691    117    1    100.0    5 
20/10/14  17:35   15.2   15.2   15.2    80   11.8  17.0     W   1.42  26.0     W   11.8   15.1   11.7  1014.8  0.00   0.0   0.011   0.000   24.4    55   14.8   24.6  10.01 1.1691    117    1    100.0    5 
20/10/14  17:40   14.9   15.2   14.9    80   11.5  15.0     W   1.25  23.0     W   11.8   14.8   11.7  1014.9  0.00   0.0   0.012   0.000   24.4    55   14.8   24.6  10.01 1.1690    116    1    100.0    5 
20/10/14  17:45   14.8   14.9   14.8    80   11.4  14.0     W   1.17  22.0     W   11.9   14.7   11.8  1015.0  0.00   0.0   0.012   0.000   24.4    56   15.1   24.7  10.21 1.1687    116    1    100.0    5 
20/10/14  17:50   14.7   14.8   14.7    81   11.5  12.0     W   1.00  18.0     W   12.3   14.6   12.2  1015.0  0.00   0.0   0.013   0.000   24.5    56   15.1   24.7  10.21 1.1684    116    1    100.0    5 
20/10/14  17:55   14.6   14.7   14.6    81   11.4  12.0     W   1.00  19.0   WSW   12.1   14.5   12.0  1015.0  0.00   0.0   0.013   0.000   24.6    56   15.2   24.8  10.20 1.1682    116    1    100.0    5 
20/10/14  18:00   14.6   14.6   14.6    81   11.3   9.0     W   0.75  15.0     W   13.1   14.4   12.9  1014.9  0.00   0.0   0.013   0.000   24.6    57   15.5   24.9  10.30 1.1674    117    1    100.0    5 
20/10/14  18:05   14.5   14.6   14.4    81   11.3  10.0     W   0.83  16.0     W   12.6   14.4   12.5  1014.9  0.00   0.0   0.013   0.000   24.7    57   15.6   24.9  10.29 1.1671    117    1    100.0    5 
20/10/14  18:10   14.5   14.5   14.4    81   11.3  10.0     W   0.83  19.0   WSW   12.6   14.4   12.5  1014.8  0.00   0.0   0.013   0.000   24.7    57   15.6   25.0  10.29 1.1667    117    1    100.0    5 
20/10/14  18:15   14.5   14.5   14.5    82   11.5  13.0     W   1.08  21.0     W   11.7   14.4   11.6  1014.8  0.00   0.0   0.013   0.000   24.8    57   15.7   25.1  10.29 1.1664    117    1    100.0    5 
20/10/14  18:20   14.6   14.6   14.5    82   11.5  13.0     W   1.08  19.0   WSW   11.8   14.4   11.7  1014.7  0.00   0.0   0.013   0.000   24.8    57   15.7   25.1  10.28 1.1661    117    1    100.0    5 
20/10/14  18:25   14.6   14.6   14.5    83   11.7  13.0   WSW   1.08  18.0     W   11.8   14.5   11.7  1014.7  0.00   0.0   0.013   0.000   24.9    58   16.1   25.2  10.48 1.1654    116    1    100.0    5 
20/10/14  18:30   14.6   14.6   14.6    83   11.8  17.0   WSW   1.42  21.0   WSW   11.1   14.6   11.1  1014.8  0.00   0.0   0.013   0.000   24.9    58   16.1   25.2  10.48 1.1654    117    1    100.0    5 
20/10/14  18:35   14.6   14.7   14.6    83   11.7  19.0   WSW   1.58  24.0   WSW   10.8   14.5   10.7  1014.7  0.00   0.0   0.013   0.000   24.9    57   15.8   25.2  10.28 1.1658    116    1    100.0    5 
20/10/14  18:40   14.6   14.6   14.6    84   11.9  20.0   WSW   1.67  24.0   WSW   10.6   14.5   10.6  1014.8  0.00   0.0   0.013   0.000   24.9    57   15.8   25.2  10.28 1.1658    118    1    100.0    5 
20/10/14  18:45   14.6   14.6   14.6    85   12.1  18.0   WSW   1.50  23.0   WSW   10.9   14.5   10.8  1014.8  0.00   0.0   0.013   0.000   24.8    56   15.5   25.1  10.18 1.1665    117    1    100.0    5 
20/10/14  18:50   14.5   14.6   14.4    85   12.0  20.0   WSW   1.67  24.0   WSW   10.6   14.4   10.5  1014.8  0.00   0.0   0.013   0.000   24.8    56   15.4   25.0  10.19 1.1667    117    1    100.0    5 
20/10/14  18:55   14.5   14.6   14.5    86   12.2  19.0   WSW   1.58  23.0   WSW   10.7   14.4   10.7  1014.8  0.00   0.0   0.013   0.000   24.8    56   15.4   25.0  10.19 1.1668    117    1    100.0    5 
20/10/14  19:00   14.4   14.5   14.4    85   12.0  18.0   WSW   1.50  23.0   WSW   10.8   14.4   10.7  1014.8  0.00   0.0   0.014   0.000   24.7    55   15.1   24.9   9.99 1.1674    117    1    100.0    5 
20/10/14  19:05   14.4   14.4   14.4    86   12.1  17.0   WSW   1.42  21.0   WSW   10.9   14.4   10.9  1014.7  0.00   0.0   0.014   0.000   24.7    56   15.3   24.9  10.19 1.1673    116    1    100.0    5 
20/10/14  19:10   14.5   14.5   14.4    86   12.2  17.0   WSW   1.42  21.0   WSW   11.0   14.4   10.9  1014.7  0.00   0.0   0.013   0.000   24.7    56   15.3   24.9  10.19 1.1672    117    1    100.0    5 
20/10/14  19:15   14.5   14.5   14.4    86   12.2  17.0   WSW   1.42  21.0   WSW   11.0   14.4   10.9  1014.6  0.00   0.0   0.013   0.000   24.7    56   15.3   24.9  10.19 1.1672    116    1    100.0    5 
20/10/14  19:20   14.6   14.6   14.5    87   12.4  15.0   WSW   1.25  20.0   WSW   11.4   14.6   11.4  1014.5  0.00   0.0   0.013   0.000   24.7    56   15.3   24.9  10.19 1.1670    117    1    100.0    5 
20/10/14  19:25   14.7   14.7   14.6    87   12.5  16.0   WSW   1.33  22.0   WSW   11.3   14.7   11.3  1014.5  0.00   0.0   0.013   0.000   24.6    56   15.2   24.8  10.20 1.1672    115    1    100.0    5 
20/10/14  19:30   14.8   14.8   14.7    87   12.7  14.0   WSW   1.17  19.0     W   11.9   14.9   11.9  1014.5  0.00   0.0   0.012   0.000   24.6    56   15.2   24.8  10.20 1.1672    116    1    100.0    5 
20/10/14  19:35   14.8   14.8   14.8    87   12.7  16.0   WSW   1.33  20.0   WSW   11.6   14.9   11.6  1014.5  0.00   0.0   0.012   0.000   24.6    56   15.2   24.8  10.20 1.1673    117    1    100.0    5 
20/10/14  19:40   14.8   14.9   14.8    85   12.3  17.0   WSW   1.42  22.0   WSW   11.3   14.8   11.3  1014.4  0.00   0.0   0.012   0.000   24.6    55   15.0   24.8  10.00 1.1676    117    1    100.0    5 
20/10/14  19:45   14.9   14.9   14.8    84   12.2  17.0   WSW   1.42  22.0   WSW   11.4   14.8   11.4  1014.4  0.00   0.0   0.012   0.000   24.6    55   14.9   24.7  10.00 1.1678    117    1    100.0    5 
20/10/14  19:50   15.0   15.0   14.9    83   12.1  17.0   WSW   1.42  23.0   WSW   11.6   14.9   11.5  1014.4  0.00   0.0   0.012   0.000   24.6    55   14.9   24.7  10.00 1.1678    116    1    100.0    5 
20/10/14  19:55   15.1   15.1   15.1    84   12.4  13.0   WSW   1.08  20.0   WSW   12.4   15.1   12.4  1014.4  0.00   0.0   0.011   0.000   24.6    56   15.2   24.8  10.20 1.1675    115    1    100.0    5 
20/10/14  20:00   15.1   15.1   15.1    84   12.4  14.0     W   1.17  20.0   WSW   12.2   15.1   12.2  1014.3  0.00   0.0   0.011   0.000   24.6    55   14.9   24.7  10.00 1.1677    116    1    100.0    5 
20/10/14  20:05   14.9   15.1   14.9    83   12.0  12.0     W   1.00  18.0     W   12.4   14.8   12.4  1014.2  0.00   0.0   0.012   0.000   24.5    56   15.1   24.7  10.21 1.1675    117    1    100.0    5 
20/10/14  20:10   14.8   14.9   14.8    84   12.1  11.0     W   0.92  16.0     W   12.6   14.7   12.6  1014.2  0.00   0.0   0.012   0.000   24.5    56   15.1   24.7  10.21 1.1675    116    1    100.0    5 
20/10/14  20:15   14.8   14.8   14.8    85   12.3  12.0     W   1.00  20.0     W   12.3   14.8   12.3  1014.2  0.00   0.0   0.012   0.000   24.5    56   15.1   24.7  10.21 1.1675    116    1    100.0    5 
20/10/14  20:20   14.8   14.8   14.8    85   12.3  14.0     W   1.17  20.0     W   11.9   14.8   11.9  1014.2  0.00   0.0   0.012   0.000   24.5    56   15.1   24.7  10.21 1.1675    116    1    100.0    5 
20/10/14  20:25   14.9   14.9   14.8    84   12.2  13.0   WSW   1.08  20.0     W   12.2   14.8   12.1  1014.3  0.00   0.0   0.012   0.000   24.5    56   15.1   24.7  10.21 1.1676    116    1    100.0    5 
20/10/14  20:30   14.8   14.9   14.8    83   12.0  16.0   WSW   1.33  23.0   WSW   11.6   14.8   11.5  1014.3  0.00   0.0   0.012   0.000   24.4    55   14.8   24.6  10.01 1.1682    116    1    100.0    5 
20/10/14  20:35   15.0   15.0   14.8    84   12.3  15.0   WSW   1.25  23.0     W   11.9   15.0   11.9  1014.3  0.00   0.0   0.012   0.000   24.4    55   14.8   24.6  10.01 1.1682    117    1    100.0    5 
20/10/14  20:40   15.0   15.0   15.0    83   12.1  16.0   WSW   1.33  23.0   WSW   11.7   14.9   11.7  1014.2  0.00   0.0   0.012   0.000   24.4    55   14.8   24.6  10.01 1.1681    117    1    100.0    5 
20/10/14  20:45   15.1   15.1   15.0    84   12.4  15.0   WSW   1.25  21.0     W   12.0   15.1   12.0  1014.1  0.00   0.0   0.011   0.000   24.4    55   14.8   24.6  10.01 1.1681    117    1    100.0    5 
20/10/14  20:50   15.1   15.1   15.1    84   12.4  14.0   WSW   1.17  23.0   WSW   12.2   15.1   12.2  1014.1  0.00   0.0   0.011   0.000   24.4    55   14.8   24.6  10.01 1.1683    116    1    100.0    5 
20/10/14  20:55   15.0   15.1   15.0    84   12.3  16.0   WSW   1.33  23.0   WSW   11.7   15.0   11.7  1014.0  0.00   0.0   0.012   0.000   24.3    55   14.7   24.5  10.02 1.1685    117    1    100.0    5 
20/10/14  21:00   15.0   15.1   15.0    84   12.3  10.0     W   0.83  19.0     W   13.2   15.0   13.2  1013.9  0.00   0.0   0.012   0.000   24.4    55   14.8   24.6  10.01 1.1681    116    1    100.0    5 
20/10/14  21:05   14.9   15.0   14.9    84   12.2  13.0   WSW   1.08  26.0   WSW   12.2   14.8   12.1  1013.9  0.00   0.0   0.012   0.000   24.3    55   14.7   24.5  10.02 1.1684    116    1    100.0    5 
20/10/14  21:10   14.8   14.8   14.8    84   12.1  17.0   WSW   1.42  24.0   WSW   11.3   14.7   11.3  1013.8  0.00   0.0   0.012   0.000   24.3    55   14.7   24.5  10.02 1.1683    116    1    100.0    5 
20/10/14  21:15   14.9   14.9   14.8    86   12.6  15.0   WSW   1.25  20.0     W   11.8   14.9   11.8  1013.7  0.00   0.0   0.012   0.000   24.3    55   14.7   24.5  10.02 1.1682    117    1    100.0    5 
20/10/14  21:20   14.9   14.9   14.9    86   12.6  16.0   WSW   1.33  24.0   WSW   11.7   14.9   11.7  1013.5  0.00   0.0   0.012   0.000   24.3    55   14.7   24.5  10.02 1.1682    117    1    100.0    5 
20/10/14  21:25   14.9   14.9   14.9    86   12.6  17.0   WSW   1.42  21.0   WSW   11.5   14.9   11.5  1013.5  0.00   0.0   0.012   0.000   24.3    55   14.7   24.5  10.02 1.1682    117    1    100.0    5 
20/10/14  21:30   14.9   14.9   14.9    85   12.4  19.0   WSW   1.58  25.0   WSW   11.2   14.9   11.2  1013.4  0.00   0.0   0.012   0.000   24.2    55   14.6   24.4  10.03 1.1684    116    1    100.0    5 
20/10/14  21:35   15.0   15.0   14.9    85   12.5  19.0   WSW   1.58  25.0   WSW   11.3   15.0   11.3  1013.4  0.00   0.0   0.012   0.000   24.2    55   14.6   24.4  10.03 1.1684    117    1    100.0    5 
20/10/14  21:40   15.0   15.0   14.9    85   12.5  18.0   WSW   1.50  25.0   WSW   11.4   15.0   11.4  1013.4  0.00   0.0   0.012   0.000   24.2    55   14.6   24.4  10.03 1.1686    117    1    100.0    5 
20/10/14  21:45   15.0   15.0   15.0    84   12.3  22.0   WSW   1.83  28.0   WSW   10.9   15.0   10.9  1013.3  0.00   0.0   0.012   0.000   24.2    55   14.6   24.4  10.03 1.1686    116    1    100.0    5 
20/10/14  21:50   15.0   15.0   14.9    84   12.3  19.0   WSW   1.58  27.0   WSW   11.3   15.0   11.3  1013.4  0.00   0.0   0.012   0.000   24.1    55   14.5   24.3  10.03 1.1689    116    1    100.0    5 
20/10/14  21:55   15.1   15.1   15.0    85   12.6  17.0   WSW   1.42  24.0   WSW   11.6   15.1   11.6  1013.3  0.00   0.0   0.011   0.000   24.1    55   14.5   24.3  10.03 1.1688    116    1    100.0    5 
20/10/14  22:00   15.1   15.1   15.0    84   12.4  17.0   WSW   1.42  24.0     W   11.6   15.1   11.6  1013.3  0.00   0.0   0.011   0.000   24.1    55   14.5   24.3  10.04 1.1691    117    1    100.0    5 
20/10/14  22:05   15.1   15.1   15.0    84   12.4  20.0   WSW   1.67  27.0     W   11.2   15.1   11.2  1013.2  0.00   0.0   0.011   0.000   24.1    54   14.2   24.3   9.84 1.1693    116    1    100.0    5 
20/10/14  22:10   15.1   15.1   15.1    85   12.6  18.0   WSW   1.50  24.0   WSW   11.5   15.1   11.5  1013.1  0.00   0.0   0.011   0.000   24.1    55   14.5   24.3  10.04 1.1689    116    1    100.0    5 
20/10/14  22:15   15.1   15.1   15.1    85   12.6  16.0   WSW   1.33  24.0   WSW   11.8   15.1   11.8  1013.1  0.00   0.0   0.011   0.000   24.1    55   14.5   24.3  10.04 1.1688    116    1    100.0    5 
20/10/14  22:20   14.9   15.1   14.9    85   12.4  16.0     W   1.33  24.0   WSW   11.6   14.9   11.6  1013.0  0.00   0.0   0.012   0.000   24.1    55   14.5   24.3  10.04 1.1688    117    1    100.0    5 
20/10/14  22:25   14.8   14.9   14.8    85   12.3  18.0   WSW   1.50  25.0     W   11.2   14.8   11.2  1013.0  0.00   0.0   0.012   0.000   24.1    55   14.5   24.3  10.04 1.1688    117    1    100.0    5 
20/10/14  22:30   14.7   14.8   14.7    85   12.2  19.0   WSW   1.58  25.0   WSW   11.0   14.7   11.0  1013.0  0.00   0.0   0.013   0.000   24.1    55   14.5   24.3  10.03 1.1685    117    1    100.0    5 
20/10/14  22:35   14.7   14.8   14.7    86   12.4  20.0   WSW   1.67  24.0   WSW   10.8   14.7   10.8  1012.9  0.00   0.0   0.013   0.000   24.1    55   14.5   24.3  10.03 1.1683    117    1    100.0    5 
20/10/14  22:40   14.8   14.8   14.7    86   12.5  19.0   WSW   1.58  26.0   WSW   11.1   14.8   11.1  1012.8  0.00   0.0   0.012   0.000   24.1    55   14.5   24.3  10.03 1.1682    117    1    100.0    5 
20/10/14  22:45   14.8   14.8   14.8    85   12.3  19.0   WSW   1.58  27.0   WSW   11.1   14.8   11.1  1012.8  0.00   0.0   0.012   0.000   24.2    55   14.6   24.4  10.03 1.1679    117    1    100.0    5 
20/10/14  22:50   14.7   14.8   14.7    85   12.2  15.0   WSW   1.25  22.0     W   11.6   14.7   11.6  1012.9  0.00   0.0   0.013   0.000   24.2    55   14.6   24.4  10.03 1.1680    117    1    100.0    5 
20/10/14  22:55   14.6   14.7   14.6    86   12.2  14.0     W   1.17  22.0   WSW   11.6   14.6   11.6  1012.7  0.00   0.0   0.013   0.000   24.2    55   14.6   24.4  10.03 1.1678    116    1    100.0    5 
20/10/14  23:00   14.3   14.6   14.3    87   12.2  10.0     W   0.83  17.0     W   12.4   14.3   12.4  1012.6  0.00   0.0   0.014   0.000   24.1    55   14.5   24.3  10.03 1.1680    117    1    100.0    5 
20/10/14  23:05   14.2   14.3   14.2    87   12.1   9.0     W   0.75  12.0     W   12.7   14.2   12.7  1012.5  0.00   0.0   0.014   0.000   24.1    55   14.5   24.3  10.03 1.1679    116    1    100.0    5 
20/10/14  23:10   14.2   14.2   14.2    88   12.2  10.0     W   0.83  17.0   WSW   12.3   14.2   12.3  1012.4  0.00   0.0   0.014   0.000   24.1    55   14.5   24.3  10.04 1.1680    116    1    100.0    5 
20/10/14  23:15   14.3   14.3   14.2    88   12.3  13.0   WSW   1.08  19.0   WSW   11.5   14.3   11.5  1012.3  0.00   0.0   0.014   0.000   24.1    55   14.5   24.3  10.04 1.1679    117    1    100.0    5 
20/10/14  23:20   14.4   14.4   14.3    88   12.5  14.0   WSW   1.17  18.0   WSW   11.4   14.4   11.4  1012.2  0.00   0.0   0.014   0.000   24.0    55   14.4   24.3  10.04 1.1681    117    1    100.0    5 
20/10/14  23:25   14.6   14.6   14.4    88   12.6  13.0   WSW   1.08  18.0   WSW   11.8   14.6   11.8  1012.2  0.00   0.0   0.013   0.000   24.0    55   14.4   24.3  10.04 1.1681    117    1    100.0    5 
20/10/14  23:30   14.6   14.6   14.6    87   12.4   8.0     W   0.67  12.0     W   13.5   14.6   13.5  1012.1  0.00   0.0   0.013   0.000   23.9    56   14.6   24.3  10.25 1.1678    116    1    100.0    5 
20/10/14  23:35   14.4   14.6   14.4    88   12.5   7.0     W   0.58  11.0   WSW   13.8   14.4   13.8  1012.0  0.00   0.0   0.014   0.000   23.9    56   14.6   24.3  10.25 1.1678    117    1    100.0    5 
20/10/14  23:40   14.4   14.4   14.4    89   12.7   9.0   WSW   0.75  18.0   WSW   12.9   14.5   13.0  1012.0  0.00   0.0   0.014   0.000   23.9    56   14.6   24.3  10.25 1.1677    116    1    100.0    5 
20/10/14  23:45   14.7   14.7   14.5    89   12.9  18.0   WSW   1.50  23.0   WSW   11.0   14.7   11.1  1011.9  0.00   0.0   0.013   0.000   23.9    56   14.6   24.2  10.25 1.1679    117    1    100.0    5 
20/10/14  23:50   14.7   14.8   14.7    88   12.8  21.0   WSW   1.75  27.0     W   10.7   14.8   10.8  1011.8  0.00   0.0   0.013   0.000   23.9    55   14.3   24.2  10.05 1.1682    114    1    100.0    5 
20/10/14  23:55   14.5   14.7   14.5    88   12.5  25.0   WSW   2.08  32.0   WSW   10.1   14.5   10.1  1011.9  0.00   0.0   0.013   0.000   23.8    55   14.2   24.1  10.05 1.1685    118    1    100.0    5 
21/10/14  00:00   13.9   14.4   13.9    88   12.0  22.0   WSW   1.83  29.0   WSW    9.7   13.9    9.7  1011.7  0.00   0.0   0.015   0.000   23.8    55   14.2   24.0  10.05 1.1686    117    1    100.0    5 
21/10/14   0:05   14.3   14.3   13.9    90   12.7  18.0   WSW   1.50  22.0   WSW   10.6   14.3   10.7  1011.6  0.00   0.0   0.014   0.000   23.8    55   14.2   24.0  10.05 1.1685    115    1    100.0    5 
21/10/14   0:10   14.4   14.5   14.3    87   12.3  21.0   WSW   1.75  25.0   WSW   10.4   14.4   10.4  1011.6  0.00   0.0   0.014   0.000   23.7    55   14.1   23.9  10.06 1.1688    116    1    100.0    5 
21/10/14   0:15   14.6   14.6   14.3    87   12.5  20.0   WSW   1.67  28.0   WSW   10.7   14.6   10.7  1011.5  0.00   0.0   0.013   0.000   23.7    55   14.1   23.9  10.06 1.1687    115    1    100.0    5 
21/10/14   0:20   14.7   14.7   14.6    85   12.2  24.0   WSW   2.00  29.0   WSW   10.3   14.6   10.3  1011.4  0.00   0.0   0.013   0.000   23.7    55   14.1   23.9  10.06 1.1688    118    1    100.0    5 
21/10/14   0:25   14.8   14.8   14.7    86   12.5  22.0   WSW   1.83  29.0   WSW   10.7   14.8   10.7  1011.4  0.00   0.0   0.012   0.000   23.6    55   14.0   23.8  10.06 1.1692    116    1    100.0    5 
21/10/14   0:30   14.8   14.8   14.8    85   12.3  24.0   WSW   2.00  31.0   WSW   10.5   14.8   10.5  1011.4  0.00   0.0   0.012   0.000   23.6    55   14.0   23.8  10.06 1.1691    117    1    100.0    5 
21/10/14   0:35   15.0   15.0   14.8    85   12.5  25.0   WSW   2.08  29.0   WSW   10.6   15.0   10.6  1011.4  0.00   0.0   0.012   0.000   23.6    55   14.0   23.7  10.06 1.1694    117    1    100.0    5 
21/10/14   0:40   15.0   15.0   14.9    85   12.5  24.0   WSW   2.00  30.0   WSW   10.7   15.0   10.7  1011.4  0.00   0.0   0.012   0.000   23.5    55   13.9   23.7  10.06 1.1697    117    1    100.0    5 
21/10/14   0:45   14.9   15.0   14.9    84   12.3  25.0   WSW   2.08  32.0   WSW   10.6   14.9   10.6  1011.4  0.00   0.0   0.012   0.000   23.4    55   13.9   23.6  10.07 1.1700    117    1    100.0    5 
21/10/14   0:50   15.0   15.0   14.9    83   12.1  25.0   WSW   2.08  30.0   WSW   10.6   14.9   10.6  1011.4  0.00   0.0   0.012   0.000   23.4    55   13.9   23.6  10.07 1.1699    117    1    100.0    5 
21/10/14   0:55   15.1   15.1   15.0    83   12.2  24.0   WSW   2.00  29.0   WSW   10.8   15.0   10.7  1011.2  0.00   0.0   0.011   0.000   23.4    55   13.8   23.5  10.07 1.1700    117    1    100.0    5 
21/10/14   1:00   15.0   15.1   15.0    83   12.1  23.0   WSW   1.92  30.0   WSW   10.8   14.9   10.8  1011.1  0.00   0.0   0.012   0.000   23.4    55   13.8   23.5  10.07 1.1699    117    1    100.0    5 
21/10/14   1:05   15.1   15.1   15.0    84   12.4  21.0   WSW   1.75  27.0   WSW   11.1   15.1   11.1  1011.0  0.00   0.0   0.011   0.000   23.3    55   13.8   23.4  10.07 1.1700    116    1    100.0    5 
21/10/14   1:10   15.1   15.1   15.1    83   12.2  22.0   WSW   1.83  28.0   WSW   10.9   15.0   10.9  1010.7  0.00   0.0   0.011   0.000   23.3    55   13.8   23.4  10.07 1.1697    115    1    100.0    5 
21/10/14   1:15   15.1   15.2   15.1    84   12.4  23.0   WSW   1.92  32.0   WSW   10.9   15.1   10.9  1010.8  0.00   0.0   0.011   0.000   23.3    55   13.7   23.4  10.07 1.1701    117    1    100.0    5 
21/10/14   1:20   14.4   15.1   14.4    90   12.8  26.0    SW   2.17  33.0   WSW    9.9   14.5    9.9  1010.7  0.00   0.0   0.014   0.000   23.3    55   13.7   23.4  10.07 1.1700    117    1    100.0    5 
21/10/14   1:25   14.2   14.4   14.2    91   12.7  22.0    SW   1.83  28.0   WSW   10.0   14.2   10.1  1010.5  0.00   0.0   0.014   0.000   23.2    55   13.7   23.3  10.07 1.1700    118    1    100.0    5 
21/10/14   1:30   14.2   14.2   14.2    91   12.8  21.0   WSW   1.75  27.0   WSW   10.2   14.3   10.2  1010.5  0.00   0.0   0.014   0.000   23.2    55   13.7   23.3  10.07 1.1700    117    1    100.0    5 
21/10/14   1:35   14.3   14.3   14.2    89   12.5  24.0   WSW   2.00  31.0   WSW    9.9   14.3    9.9  1010.4  0.00   0.0   0.014   0.000   23.2    55   13.6   23.2  10.08 1.1702    116    1    100.0    5 
21/10/14   1:40   14.6   14.6   14.3    88   12.6  23.0   WSW   1.92  30.0   WSW   10.3   14.6   10.3  1010.2  0.00   0.0   0.013   0.000   23.2    55   13.6   23.2  10.08 1.1699    117    1    100.0    5 
21/10/14   1:45   14.7   14.7   14.6    85   12.2  26.0   WSW   2.17  32.0   WSW   10.2   14.6   10.1  1010.1  0.00   0.0   0.013   0.000   23.1    55   13.6   23.2  10.08 1.1701    116    1    100.0    5 
21/10/14   1:50   14.7   14.8   14.7    86   12.4  24.0   WSW   2.00  32.0   WSW   10.4   14.7   10.4  1010.1  0.00   0.0   0.013   0.000   23.1    55   13.6   23.2  10.08 1.1701    117    1    100.0    5 
21/10/14   1:55   14.6   14.7   14.6    87   12.5  23.0   WSW   1.92  31.0   WSW   10.4   14.6   10.4  1009.9  0.00   0.0   0.013   0.000   23.1    55   13.5   23.1  10.08 1.1701    117    1    100.0    5 
21/10/14   2:00   14.5   14.6   14.5    86   12.2  24.0   WSW   2.00  32.0   WSW   10.1   14.4   10.1  1009.8  0.00   0.0   0.013   0.000   23.1    55   13.5   23.1  10.08 1.1701    116    1    100.0    5 
21/10/14   2:05   14.6   14.6   14.5    86   12.2  23.0   WSW   1.92  34.0   WSW   10.3   14.6   10.3  1009.7  0.00   0.0   0.013   0.000   23.0    55   13.5   23.1  10.08 1.1701    117    1    100.0    5 
21/10/14   2:10   14.7   14.7   14.6    84   12.0  24.0   WSW   2.00  34.0   WSW   10.3   14.6   10.3  1009.7  0.00   0.0   0.013   0.000   23.0    55   13.5   23.1  10.08 1.1701    116    1    100.0    5 
21/10/14   2:15   14.7   14.8   14.7    84   12.0  24.0   WSW   2.00  30.0   WSW   10.3   14.6   10.3  1009.6  0.00   0.0   0.013   0.000   22.9    55   13.4   23.0  10.08 1.1703    115    1    100.0    5 
21/10/14   2:20   14.8   14.8   14.7    85   12.3  22.0   WSW   1.83  30.0   WSW   10.7   14.8   10.7  1009.5  0.00   0.0   0.012   0.000   22.9    55   13.4   23.0  10.08 1.1702    115    1    100.0    5 
21/10/14   2:25   14.7   14.8   14.7    84   12.0  21.0   WSW   1.75  28.0   WSW   10.7   14.7   10.7  1009.3  0.00   0.0   0.013   0.000   22.9    55   13.4   23.0  10.08 1.1700    117    1    100.0    5 
21/10/14   2:30   14.8   14.8   14.7    85   12.3  23.0   WSW   1.92  27.0    SW   10.6   14.8   10.6  1009.1  0.00   0.0   0.012   0.000   22.9    55   13.4   23.0  10.08 1.1697    116    1    100.0    5 
21/10/14   2:35   14.8   14.8   14.8    84   12.2  23.0    SW   1.92  27.0   WSW   10.6   14.8   10.6  1008.9  0.00   0.0   0.012   0.000   22.9    55   13.4   23.0  10.08 1.1695    116    1    100.0    5 
21/10/14   2:40   14.8   14.9   14.8    86   12.5  22.0    SW   1.83  27.0    SW   10.7   14.8   10.7  1008.6  0.00   0.0   0.012   0.000   22.9    55   13.4   22.9  10.09 1.1695    117    1    100.0    5 
21/10/14   2:45   14.7   14.8   14.7    86   12.4  25.0   WSW   2.08  31.0   WSW   10.3   14.7   10.3  1008.9  0.00   0.0   0.013   0.000   22.9    55   13.4   22.9  10.09 1.1698    117    1    100.0    5 
21/10/14   2:50   14.7   14.7   14.6    85   12.2  28.0   WSW   2.33  34.0   WSW   10.0   14.6    9.9  1008.8  0.00   0.0   0.013   0.000   22.8    55   13.3   22.8  10.09 1.1700    117    1    100.0    5 
21/10/14   2:55   14.4   14.7   14.4    88   12.4  28.0   WSW   2.33  35.0   WSW    9.7   14.4    9.7  1008.6  0.00   0.0   0.014   0.000   22.8    55   13.3   22.8  10.09 1.1698    117    1    100.0    5 
21/10/14   3:00   14.1   14.4   14.1    92   12.8  25.0   WSW   2.08  32.0   WSW    9.6   14.2    9.7  1008.6  0.00   0.0   0.015   0.000   22.8    55   13.3   22.8  10.09 1.1700    116    1    100.0    5 
21/10/14   3:05   13.9   14.1   13.9    93   12.8  24.0   WSW   2.00  29.0   WSW    9.5   14.1    9.6  1008.4  0.00   0.0   0.015   0.000   22.8    55   13.3   22.8  10.09 1.1698    117    1    100.0    5 
21/10/14   3:10   13.8   13.9   13.8    93   12.7  22.0   WSW   1.83  28.0   WSW    9.6   13.9    9.7  1008.2  0.00   0.0   0.016   0.000   22.7    55   13.2   22.7  10.09 1.1698    116    1    100.0    5 
21/10/14   3:15   13.8   13.8   13.8    92   12.6  23.0   WSW   1.92  28.0   WSW    9.5   13.9    9.6  1008.1  0.00   0.0   0.016   0.000   22.7    55   13.2   22.7  10.09 1.1698    117    1    100.0    5 
21/10/14   3:20   14.1   14.1   13.8    92   12.8  26.0   WSW   2.17  33.0   WSW    9.4   14.2    9.6  1008.1  0.00   0.0   0.015   0.000   22.7    55   13.2   22.7  10.09 1.1697    117    1    100.0    5 
21/10/14   3:25   14.0   14.1   14.0    92   12.7  27.0   WSW   2.25  34.0   WSW    9.3   14.1    9.3  1008.1  0.00   0.0   0.015   0.000   22.7    55   13.2   22.6  10.09 1.1700    116    1    100.0    5 
21/10/14   3:30   13.9   14.0   13.9    93   12.8  27.0   WSW   2.25  33.0   WSW    9.2   14.1    9.3  1008.0  0.00   0.0   0.015   0.000   22.7    55   13.2   22.6  10.09 1.1699    117    1    100.0    5 
21/10/14   3:35   14.1   14.1   13.9    93   13.0  27.0   WSW   2.25  33.0   WSW    9.4   14.2    9.6  1007.7  0.00   0.0   0.015   0.000   22.6    55   13.1   22.5  10.10 1.1698    115    1    100.0    5 
21/10/14   3:40   14.2   14.2   14.1    92   12.9  27.0   WSW   2.25  34.0   WSW    9.5   14.3    9.6  1007.4  0.00   0.0   0.014   0.000   22.6    55   13.1   22.5  10.10 1.1695    117    1    100.0    5 
21/10/14   3:45   14.3   14.3   14.2    92   13.1  27.0   WSW   2.25  34.0    SW    9.7   14.4    9.8  1007.4  0.00   0.0   0.014   0.000   22.6    55   13.1   22.4  10.10 1.1697    117    1    100.0    5 
21/10/14   3:50   14.4   14.4   14.3    91   12.9  27.0    SW   2.25  34.0    SW    9.8   14.4    9.8  1007.2  0.00   0.0   0.014   0.000   22.6    56   13.3   22.5  10.30 1.1692    117    1    100.0    5 
21/10/14   3:55   14.4   14.4   14.4    90   12.8  29.0    SW   2.42  36.0   WSW    9.7   14.5    9.7  1007.0  0.00   0.0   0.014   0.000   22.5    56   13.3   22.4  10.30 1.1692    117    1    100.0    5 
21/10/14   4:00   14.6   14.6   14.5    91   13.1  30.0    SW   2.50  36.0    SW    9.7   14.7    9.8  1006.7  0.00   0.0   0.013   0.000   22.5    56   13.3   22.4  10.30 1.1689    116    1    100.0    5 
21/10/14   4:05   14.4   14.6   14.4    90   12.8  31.0   WSW   2.58  41.0   WSW    9.5   14.5    9.6  1006.8  0.20   0.0   0.014   0.000   22.4    56   13.2   22.3  10.30 1.1692    115    1    100.0    5 
21/10/14   4:10   14.3   14.4   14.3    91   12.9  30.0   WSW   2.50  39.0   WSW    9.4   14.4    9.5  1006.8  0.00   0.0   0.014   0.000   22.4    56   13.2   22.3  10.30 1.1692    116    1    100.0    5 
21/10/14   4:15   14.3   14.3   14.3    91   12.8  29.0   WSW   2.42  36.0   WSW    9.4   14.3    9.5  1006.6  0.00   0.0   0.014   0.000   22.4    56   13.2   22.2  10.30 1.1694    117    1    100.0    5 
21/10/14   4:20   14.3   14.3   14.3    91   12.9  29.0   WSW   2.42  34.0   WSW    9.6   14.4    9.6  1006.5  0.00   0.0   0.014   0.000   22.4    56   13.2   22.2  10.30 1.1692    116    1    100.0    5 
21/10/14   4:25   14.4   14.4   14.3    90   12.8  28.0   WSW   2.33  36.0    SW    9.7   14.4    9.7  1006.5  0.00   0.0   0.014   0.000   22.4    56   13.2   22.2  10.30 1.1692    117    1    100.0    5 
21/10/14   4:30   14.6   14.6   14.4    89   12.8  29.0   WSW   2.42  35.0   WSW    9.8   14.6    9.8  1006.4  0.00   0.0   0.013   0.000   22.3    56   13.1   22.2  10.31 1.1694    117    1    100.0    5 
21/10/14   4:35   14.8   14.8   14.6    89   13.0  28.0   WSW   2.33  35.0   WSW   10.1   14.8   10.2  1006.1  0.00   0.0   0.012   0.000   22.3    56   13.1   22.2  10.31 1.1690    118    1    100.0    5 
21/10/14   4:40   14.8   14.9   14.8    87   12.7  27.0   WSW   2.25  38.0   WSW   10.3   14.9   10.3  1006.0  0.00   0.0   0.012   0.000   22.3    56   13.1   22.1  10.31 1.1692    117    1    100.0    5 
21/10/14   4:45   14.9   14.9   14.8    88   13.0  29.0   WSW   2.42  36.0   WSW   10.2   15.0   10.3  1005.9  0.00   0.0   0.012   0.000   22.3    56   13.1   22.1  10.31 1.1691    116    1    100.0    5 
21/10/14   4:50   14.8   14.9   14.8    88   12.9  29.0   WSW   2.42  38.0   WSW   10.1   14.9   10.2  1005.9  0.00   0.0   0.012   0.000   22.3    56   13.1   22.1  10.31 1.1690    117    1    100.0    5 
21/10/14   4:55   15.0   15.0   14.8    87   12.9  29.0   WSW   2.42  36.0   WSW   10.3   15.1   10.3  1005.8  0.00   0.0   0.012   0.000   22.2    56   13.0   22.0  10.31 1.1692    117    1    100.0    5 
21/10/14   5:00   15.1   15.1   14.9    86   12.7  30.0   WSW   2.50  37.0   WSW   10.3   15.1   10.3  1005.6  0.00   0.0   0.011   0.000   22.2    56   13.0   22.0  10.31 1.1690    115    1    100.0    5 
21/10/14   5:05   15.0   15.1   15.0    87   12.9  33.0   WSW   2.75  42.0   WSW   10.0   15.1   10.1  1005.6  0.00   0.0   0.012   0.000   22.2    56   13.0   21.9  10.31 1.1693    117    1    100.0    5 
21/10/14   5:10   14.7   14.9   14.7    89   12.9  33.0   WSW   2.75  43.0   WSW    9.6   14.7    9.7  1005.5  0.00   0.0   0.013   0.000   22.2    56   13.0   21.9  10.31 1.1692    115    1    100.0    5 
21/10/14   5:15   14.4   14.7   14.4    91   13.0  33.0   WSW   2.75  43.0   WSW    9.4   14.5    9.4  1005.5  0.00   0.0   0.014   0.000   22.2    56   13.0   21.9  10.31 1.1691    117    1    100.0    5 
21/10/14   5:20   14.3   14.4   14.3    92   13.1  32.0   WSW   2.67  44.0   WSW    9.3   14.4    9.4  1005.4  0.00   0.0   0.014   0.000   22.1    56   12.9   21.8  10.31 1.1693    117    1    100.0    5 
21/10/14   5:25   14.2   14.3   14.2    92   12.9  29.0   WSW   2.42  44.0   WSW    9.4   14.3    9.5  1005.4  0.00   0.0   0.014   0.000   22.1    56   12.9   21.8  10.31 1.1693    117    1    100.0    5 
21/10/14   5:30   14.3   14.3   14.2    93   13.2  29.0   WSW   2.42  39.0   WSW    9.4   14.4    9.6  1005.2  0.00   0.0   0.014   0.000   22.1    56   12.9   21.7  10.32 1.1693    116    1    100.0    5 
21/10/14   5:35   14.3   14.3   14.3    93   13.2  32.0   WSW   2.67  41.0   WSW    9.3   14.4    9.4  1005.1  0.00   0.0   0.014   0.000   22.1    57   13.1   21.8  10.48 1.1689    118    1    100.0    5 
21/10/14   5:40   14.4   14.4   14.3    93   13.3  30.0   WSW   2.50  38.0   WSW    9.6   14.6    9.7  1005.1  0.00   0.0   0.014   0.000   22.1    57   13.1   21.8  10.48 1.1689    117    1    100.0    5 
21/10/14   5:45   14.4   14.4   14.4    93   13.3  31.0   WSW   2.58  38.0   WSW    9.4   14.5    9.6  1005.0  0.00   0.0   0.014   0.000   22.0    57   13.1   21.7  10.49 1.1691    117    1    100.0    5 
21/10/14   5:50   14.4   14.5   14.4    94   13.5  30.0   WSW   2.50  41.0   WSW    9.6   14.6    9.7  1004.9  0.00   0.0   0.014   0.000   22.0    57   13.1   21.7  10.49 1.1689    117    1    100.0    5 
21/10/14   5:55   14.3   14.4   14.3    94   13.3  29.0   WSW   2.42  40.0   WSW    9.4   14.4    9.6  1004.8  0.00   0.0   0.014   0.000   22.0    57   13.1   21.7  10.49 1.1688    116    1    100.0    5 
21/10/14   6:00   14.4   14.4   14.3    94   13.4  29.0   WSW   2.42  36.0   WSW    9.6   14.6    9.8  1004.6  0.00   0.0   0.014   0.000   21.9    57   13.0   21.6  10.49 1.1688    116    1    100.0    5 
21/10/14   6:05   14.3   14.4   14.3    93   13.2  32.0   WSW   2.67  40.0   WSW    9.3   14.4    9.4  1004.4  0.00   0.0   0.014   0.000   21.9    57   13.0   21.6  10.49 1.1686    116    1    100.0    5 
21/10/14   6:10   14.4   14.4   14.3    94   13.5  32.0   WSW   2.67  40.0   WSW    9.4   14.6    9.6  1004.1  0.00   0.0   0.014   0.000   21.9    57   13.0   21.6  10.49 1.1685    117    1    100.0    5 
21/10/14   6:15   14.5   14.5   14.4    94   13.5  31.0   WSW   2.58  37.0   WSW    9.6   14.7    9.7  1003.9  0.00   0.0   0.013   0.000   21.9    57   13.0   21.6  10.49 1.1683    116    1    100.0    5 
21/10/14   6:20   14.6   14.7   14.5    94   13.7  28.0   WSW   2.33  35.0   WSW    9.9   14.8   10.1  1003.8  0.00   0.0   0.013   0.000   21.9    57   13.0   21.6  10.49 1.1682    116    1    100.0    5 
21/10/14   6:25   14.7   14.7   14.6    93   13.5  32.0   WSW   2.67  41.0    SW    9.7   14.8    9.9  1003.7  0.00   0.0   0.013   0.000   21.9    57   13.0   21.6  10.49 1.1680    117    1    100.0    5 
21/10/14   6:30   14.7   14.7   14.7    93   13.6  33.0   WSW   2.75  41.0   WSW    9.7   14.9    9.9  1003.6  0.00   0.0   0.013   0.000   21.9    57   13.0   21.6  10.49 1.1680    117    1    100.0    5 
21/10/14   6:35   14.7   14.8   14.7    93   13.6  33.0   WSW   2.75  41.0   WSW    9.7   14.9    9.9  1003.5  0.00   0.0   0.013   0.000   21.8    57   12.9   21.4  10.50 1.1681    117    1    100.0    5 
21/10/14   6:40   14.7   14.7   14.7    94   13.7  31.0   WSW   2.58  39.0   WSW    9.8   14.8    9.9  1003.3  0.00   0.0   0.013   0.000   21.8    57   12.9   21.4  10.50 1.1678    117    1    100.0    5 
21/10/14   6:45   14.7   14.7   14.7    93   13.6  32.0   WSW   2.67  40.0   WSW    9.8   14.9    9.9  1003.2  0.00   0.0   0.013   0.000   21.8    57   12.9   21.4  10.50 1.1680    117    1    100.0    5 
21/10/14   6:50   14.8   14.8   14.7    94   13.9  30.0   WSW   2.50  40.0   WSW   10.0   15.0   10.2  1003.1  0.00   0.0   0.012   0.000   21.8    58   13.1   21.4  10.70 1.1676    116    1    100.0    5 
21/10/14   6:55   14.9   14.9   14.8    93   13.8  33.0   WSW   2.75  40.0    SW    9.9   15.1   10.1  1002.9  0.00   0.0   0.012   0.000   21.8    58   13.1   21.4  10.70 1.1674    117    1    100.0    5 
21/10/14   7:00   14.9   15.0   14.9    93   13.8  32.0   WSW   2.67  39.0   WSW   10.1   15.1   10.2  1003.0  0.00   0.0   0.012   0.000   21.8    58   13.1   21.4  10.70 1.1675    117    1    100.0    5 
21/10/14   7:05   14.8   14.9   14.8    93   13.7  33.0   WSW   2.75  43.0   WSW    9.8   15.0   10.0  1002.9  0.00   0.0   0.012   0.000   21.7    58   13.1   21.3  10.71 1.1677    117    1    100.0    5 
21/10/14   7:10   15.0   15.0   14.8    93   13.9  30.0   WSW   2.50  37.0   WSW   10.2   15.2   10.4  1002.8  0.00   0.0   0.012   0.000   21.7    58   13.1   21.3  10.71 1.1676    117    1    100.0    5 
21/10/14   7:15   15.1   15.1   15.0    92   13.8  31.0   WSW   2.58  37.0   WSW   10.3   15.3   10.4  1002.8  0.00   0.0   0.011   0.000   21.7    58   13.1   21.3  10.71 1.1675    115    1    100.0    5 
21/10/14   7:20   15.2   15.2   15.1    92   13.9  32.0   WSW   2.67  41.0   WSW   10.3   15.4   10.5  1002.5  0.00   0.0   0.011   0.000   21.7    58   13.0   21.3  10.71 1.1675    115    1    100.0    5 
21/10/14   7:25   15.3   15.3   15.2    91   13.9  32.0   WSW   2.67  39.0    SW   10.5   15.5   10.7  1002.5  0.00   0.0   0.010   0.000   21.7    58   13.0   21.3  10.71 1.1675    116    1    100.0    5 
21/10/14   7:30   15.3   15.4   15.3    91   13.9  31.0   WSW   2.58  42.0   WSW   10.6   15.5   10.7  1002.6  0.00   0.0   0.010   0.000   21.7    58   13.0   21.3  10.71 1.1676    117    1    100.0    5 
21/10/14   7:35   15.3   15.4   15.3    91   13.8  31.0   WSW   2.58  39.0    SW   10.4   15.4   10.6  1002.5  0.00   0.0   0.011   0.000   21.7    58   13.0   21.3  10.71 1.1675    116    1    100.0    5 
21/10/14   7:40   15.3   15.3   15.3    91   13.9  32.0   WSW   2.67  41.0   WSW   10.5   15.5   10.7  1002.6  0.00   0.0   0.010   0.000   21.7    58   13.0   21.3  10.71 1.1676    117    1    100.0    5 
21/10/14   7:45   15.4   15.4   15.3    91   14.0  33.0   WSW   2.75  44.0   WSW   10.6   15.6   10.7  1002.6  0.00   0.0   0.010   0.000   21.6    58   13.0   21.2  10.71 1.1679    118    1    100.0    5 
21/10/14   7:50   15.4   15.4   15.3    91   13.9  32.0   WSW   2.67  41.0   WSW   10.6   15.6   10.7  1002.5  0.00   0.0   0.010   0.000   21.6    58   13.0   21.2  10.71 1.1678    117    1    100.0    5 
21/10/14   7:55   15.3   15.3   15.3    92   14.0  33.0   WSW   2.75  45.0   WSW   10.3   15.4   10.5  1002.5  0.00   0.0   0.011   0.000   21.6    58   13.0   21.2  10.71 1.1678    116    1    100.0    5 
21/10/14   8:00   15.3   15.3   15.2    92   14.0  31.0   WSW   2.58  38.0   WSW   10.6   15.5   10.7  1002.5  0.00   0.0   0.010   0.000   21.6    59   13.3   21.3  10.91 1.1674    116    1    100.0    5 
21/10/14   8:05   15.1   15.3   15.1    93   14.0  30.0   WSW   2.50  40.0    SW   10.3   15.3   10.5  1002.5  0.00   0.0   0.011   0.000   21.6    59   13.3   21.3  10.91 1.1674    116    1    100.0    5 
21/10/14   8:10   14.8   15.1   14.8    94   13.9  26.0   WSW   2.17  36.0   WSW   10.3   15.0   10.5  1002.6  0.00   0.0   0.012   0.000   21.6    59   13.3   21.3  10.91 1.1675    115    1    100.0    5 
21/10/14   8:15   14.8   14.8   14.8    94   13.9  23.0     W   1.92  37.0   WSW   10.6   15.0   10.8  1002.3  0.00   0.0   0.012   0.000   21.6    59   13.3   21.3  10.91 1.1673    116    1    100.0    5 
21/10/14   8:20   14.9   14.9   14.8    95   14.2  23.0   WSW   1.92  33.0   WSW   10.8   15.2   11.0  1002.2  0.00   0.0   0.012   0.000   21.6    59   13.3   21.3  10.91 1.1671    117    1    100.0    5 
21/10/14   8:25   14.9   15.0   14.9    95   14.2  26.0   WSW   2.17  36.0   WSW   10.5   15.2   10.7  1002.3  0.00   0.0   0.012   0.000   21.7    59   13.3   21.3  10.91 1.1669    117    1    100.0    5 
21/10/14   8:30   14.8   14.9   14.8    94   13.8  18.0     W   1.50  29.0     W   11.2   14.9   11.3  1002.2  0.00   0.0   0.012   0.000   21.7    59   13.4   21.4  10.91 1.1665    115    1    100.0    5 
21/10/14   8:35   14.8   14.8   14.8    94   13.8  14.0     W   1.17  22.0     W   11.8   14.9   12.0  1002.3  0.00   0.0   0.012   0.000   21.7    59   13.4   21.4  10.91 1.1667    117    1    100.0    5 
21/10/14   8:40   14.6   14.8   14.6    94   13.6  16.0     W   1.33  24.0     W   11.2   14.7   11.4  1002.5  0.00   0.0   0.013   0.000   21.8    59   13.4   21.5  10.90 1.1666    116    1    100.0    5 
21/10/14   8:45   14.4   14.6   14.4    94   13.5  15.0     W   1.25  24.0     W   11.3   14.6   11.4  1002.4  0.00   0.0   0.014   0.000   21.8    59   13.5   21.6  10.90 1.1662    118    1    100.0    5 
21/10/14   8:50   14.3   14.4   14.3    93   13.2  16.0     W   1.33  27.0   WSW   10.9   14.4   11.0  1002.3  0.00   0.0   0.014   0.000   21.8    59   13.5   21.6  10.90 1.1661    117    1    100.0    5 
21/10/14   8:55   14.3   14.3   14.3    93   13.2  14.0     W   1.17  21.0   WSW   11.3   14.4   11.4  1002.4  0.00   0.0   0.014   0.000   21.9    59   13.5   21.7  10.89 1.1659    117    1    100.0    5 
21/10/14   9:00   14.3   14.3   14.2    92   13.0  18.0     W   1.50  28.0     W   10.6   14.4   10.7  1002.4  0.00   0.0   0.014   0.000   21.9    59   13.6   21.7  10.89 1.1657    116    1    100.0    5 
21/10/14   9:05   14.4   14.4   14.3    92   13.2  15.0     W   1.25  29.0   WNW   11.3   14.6   11.4  1002.5  0.00   0.0   0.014   0.000   22.0    59   13.6   21.8  10.89 1.1655    117    1    100.0    5 
21/10/14   9:10   14.6   14.6   14.4    91   13.1  15.0     W   1.25  24.0     W   11.4   14.7   11.5  1002.5  0.00   0.0   0.013   0.000   22.0    59   13.6   21.8  10.89 1.1655    117    1    100.0    5 
21/10/14   9:15   14.6   14.6   14.5    91   13.1  15.0     W   1.25  25.0     W   11.4   14.7   11.5  1002.5  0.00   0.0   0.013   0.000   22.1    60   14.0   22.0  11.01 1.1646    116    1    100.0    5 
21/10/14   9:20   14.3   14.6   14.3    90   12.7  16.0     W   1.33  25.0   WNW   11.0   14.4   11.1  1002.5  0.00   0.0   0.014   0.000   22.1    60   14.0   22.0  11.01 1.1647    117    1    100.0    5 
21/10/14   9:25   14.1   14.3   14.1    90   12.5  16.0     W   1.33  27.0     W   10.7   14.2   10.8  1002.7  0.00   0.0   0.015   0.000   22.2    59   13.8   22.1  10.87 1.1646    116    1    100.0    5 
21/10/14   9:30   13.9   14.1   13.9    90   12.3  15.0     W   1.25  23.0     W   10.6   13.9   10.7  1002.8  0.00   0.0   0.015   0.000   22.2    59   13.8   22.1  10.87 1.1647    117    1    100.0    5 
21/10/14   9:35   13.8   13.9   13.8    90   12.2  15.0     W   1.25  32.0     W   10.6   13.9   10.6  1003.0  0.00   0.0   0.016   0.000   22.3    59   13.9   22.2  10.87 1.1646    117    1    100.0    5 
21/10/14   9:40   13.7   13.8   13.7    90   12.1  14.0   WNW   1.17  25.0   NNW   10.6   13.8   10.7  1003.1  0.00   0.0   0.016   0.000   22.3    60   14.1   22.3  11.01 1.1645    117    1    100.0    5 
21/10/14   9:45   13.4   13.7   13.4    90   11.8  14.0   WNW   1.17  21.0    NW   10.2   13.4   10.3  1003.3  0.00   0.0   0.017   0.000   22.3    60   14.1   22.3  11.01 1.1647    117    1    100.0    5 
21/10/14   9:50   13.2   13.4   13.2    91   11.8  14.0   WNW   1.17  22.0   WNW   10.1   13.3   10.1  1003.4  0.00   0.0   0.018   0.000   22.3    60   14.1   22.3  11.01 1.1648    116    1    100.0    5 
21/10/14   9:55   12.7   13.2   12.7    87   10.6  21.0     W   1.75  34.0     W    8.4   12.7    8.4  1003.5  0.00   0.0   0.019   0.000   22.3    59   13.9   22.3  10.86 1.1650    117    1    100.0    5 
21/10/14  10:00   12.7   12.7   12.7    86   10.4  17.0     W   1.42  29.0     W    9.0   12.7    8.9  1003.5  0.00   0.0   0.019   0.000   22.3    59   13.9   22.3  10.86 1.1649    115    1    100.0    5 
21/10/14  10:05   12.7   12.8   12.7    84   10.1  19.0     W   1.58  32.0     W    8.7   12.7    8.6  1003.5  0.00   0.0   0.019   0.000   22.3    59   13.9   22.2  10.87 1.1652    117    1    100.0    5 
21/10/14  10:10   12.9   12.9   12.8    82    9.9  17.0     W   1.42  27.0   WSW    9.2   12.8    9.1  1003.6  0.00   0.0   0.019   0.000   22.3    59   13.9   22.2  10.87 1.1653    116    1    100.0    5 
21/10/14  10:15   12.9   13.0   12.9    81    9.8  16.0   WNW   1.33  28.0   WNW    9.4   12.8    9.2  1003.7  0.00   0.0   0.019   0.000   22.3    60   14.1   22.3  11.01 1.1652    117    1    100.0    5 
21/10/14  10:20   12.9   13.0   12.9    78    9.2  16.0     W   1.33  29.0   WNW    9.4   12.7    9.2  1003.9  0.00   0.0   0.019   0.000   22.3    60   14.1   22.3  11.01 1.1654    117    1    100.0    5 
21/10/14  10:25   12.9   12.9   12.9    75    8.6  18.0     W   1.50  34.0     W    9.1   12.7    8.8  1004.1  0.00   0.0   0.019   0.000   22.3    60   14.2   22.3  11.01 1.1653    116    1    100.0    5 
21/10/14  10:30   12.8   12.9   12.8    72    7.9  23.0     W   1.92  38.0     W    8.3   12.4    7.9  1003.9  0.00   0.0   0.019   0.000   22.3    59   13.9   22.3  10.86 1.1655    117    1    100.0    5 
21/10/14  10:35   12.9   12.9   12.8    71    7.8  23.0     W   1.92  37.0   WNW    8.4   12.6    8.1  1004.2  0.00   0.0   0.019   0.000   22.3    60   14.2   22.3  11.01 1.1654    116    1    100.0    5 
21/10/14  10:40   13.2   13.2   12.9    69    7.6  21.0   WNW   1.75  37.0    NW    8.9   12.7    8.5  1004.5  0.00   0.0   0.018   0.000   22.4    60   14.2   22.4  11.00 1.1656    117    1    100.0    5 
21/10/14  10:45   13.3   13.3   13.2    67    7.3  22.0   WNW   1.83  38.0   WNW    8.9   12.8    8.4  1004.7  0.00   0.0   0.018   0.000   22.4    60   14.2   22.4  11.00 1.1658    117    1    100.0    5 
21/10/14  10:50   13.4   13.4   13.3    67    7.4  18.0   WNW   1.50  30.0     W    9.6   12.9    9.1  1004.7  0.00   0.0   0.017   0.000   22.4    60   14.3   22.5  11.00 1.1656    116    1    100.0    5 
21/10/14  10:55   13.5   13.5   13.4    67    7.5  19.0   WNW   1.58  33.0     W    9.6   13.0    9.1  1004.9  0.00   0.0   0.017   0.000   22.4    60   14.3   22.5  11.00 1.1657    118    1    100.0    5 
21/10/14  11:00   13.6   13.6   13.5    66    7.3  21.0     W   1.75  33.0     W    9.4   13.0    8.8  1005.2  0.00   0.0   0.017   0.000   22.5    60   14.3   22.6  11.00 1.1658    117    1    100.0    5 
21/10/14  11:05   13.7   13.7   13.6    66    7.4  18.0   WNW   1.50  28.0   WNW    9.9   13.1    9.3  1005.4  0.00   0.0   0.016   0.000   22.5    60   14.3   22.6  11.00 1.1660    117    1    100.0    5 
21/10/14  11:10   13.5   13.7   13.5    65    7.0  20.0   WNW   1.67  35.0     W    9.4   12.9    8.9  1005.4  0.00   0.0   0.017   0.000   22.6    60   14.4   22.7  11.00 1.1658    116    1    100.0    5 
21/10/14  11:15   13.4   13.5   13.4    64    6.8  20.0   WNW   1.67  33.0    NW    9.3   12.8    8.7  1005.5  0.00   0.0   0.017   0.000   22.6    60   14.5   22.7  11.00 1.1656    117    1    100.0    5 
21/10/14  11:20   13.5   13.5   13.4    65    7.0  16.0   WNW   1.33  30.0   WNW   10.0   12.9    9.4  1005.7  0.00   0.0   0.017   0.000   22.7    60   14.5   22.8  10.99 1.1655    117    1    100.0    5 
21/10/14  11:25   13.6   13.6   13.5    63    6.7  17.0   WNW   1.42  31.0    NW   10.0   13.0    9.4  1005.8  0.00   0.0   0.016   0.000   22.7    60   14.6   22.9  10.99 1.1654    117    1    100.0    5 
21/10/14  11:30   13.8   13.8   13.6    62    6.6  16.0   WNW   1.33  29.0     W   10.3   13.1    9.7  1006.1  0.00   0.0   0.016   0.000   22.7    59   14.3   22.9  10.83 1.1660    117    1    100.0    5 
21/10/14  11:35   13.7   13.8   13.7    62    6.5  18.0   WNW   1.50  29.0     W    9.9   13.0    9.2  1006.1  0.00   0.0   0.016   0.000   22.7    60   14.6   22.9  10.99 1.1658    116    1    100.0    5 
21/10/14  11:40   13.7   13.7   13.7    61    6.3  19.0   WNW   1.58  30.0   WNW    9.8   13.1    9.2  1006.3  0.00   0.0   0.016   0.000   22.8    60   14.6   23.0  10.99 1.1656    115    1    100.0    5 
21/10/14  11:45   13.7   13.7   13.7    61    6.3  16.0   WNW   1.33  31.0    NW   10.2   13.0    9.6  1006.3  0.00   0.0   0.016   0.000   22.8    59   14.3   22.9  10.83 1.1661    117    1    100.0    5 
21/10/14  11:50   13.6   13.7   13.6    63    6.7  14.0   WNW   1.17  27.0   WNW   10.5   13.0    9.9  1006.3  0.00   0.0   0.016   0.000   22.8    59   14.3   22.9  10.83 1.1660    116    1    100.0    5 
21/10/14  11:55   13.6   13.6   13.5    63    6.6  15.0   WNW   1.25  29.0   WNW   10.2   12.9    9.6  1006.3  0.00   0.0   0.017   0.000   22.8    59   14.3   22.9  10.83 1.1661    117    1    100.0    5 
21/10/14  12:00   13.8   13.8   13.6    64    7.1  14.0   WNW   1.17  23.0   WNW   10.7   13.2   10.1  1006.2  0.00   0.0   0.016   0.000   22.8    59   14.4   23.0  10.83 1.1657    117    1    100.0    5 
21/10/14  12:05   13.7   13.8   13.7    61    6.3  17.0   WNW   1.42  28.0   WNW   10.1   13.0    9.4  1006.4  0.00   0.0   0.016   0.000   22.8    59   14.3   22.9  10.83 1.1661    117    1    100.0    5 
21/10/14  12:10   13.8   13.8   13.7    61    6.4  17.0   WNW   1.42  33.0     W   10.2   13.1    9.5  1006.4  0.00   0.0   0.016   0.000   22.8    59   14.3   22.9  10.83 1.1662    117    1    100.0    5 
21/10/14  12:15   14.0   14.0   13.8    61    6.6  17.0   WNW   1.42  36.0   WNW   10.4   13.3    9.7  1006.5  0.00   0.0   0.015   0.000   22.8    59   14.4   23.0  10.83 1.1659    117    1    100.0    5 
21/10/14  12:20   14.1   14.1   14.0    59    6.2  20.0   WNW   1.67  30.0   WNW   10.1   13.3    9.3  1006.5  0.00   0.0   0.015   0.000   22.8    59   14.4   23.0  10.83 1.1659    117    1    100.0    5 
21/10/14  12:25   14.1   14.1   14.1    59    6.2  18.0   WNW   1.50  32.0     W   10.3   13.3    9.6  1006.7  0.00   0.0   0.015   0.000   22.8    59   14.4   23.0  10.83 1.1662    116    1    100.0    5 
21/10/14  12:30   14.1   14.2   14.1    58    6.0  20.0   WNW   1.67  39.0     W   10.1   13.3    9.3  1006.7  0.00   0.0   0.015   0.000   22.9    59   14.5   23.1  10.82 1.1659    117    1    100.0    5 
21/10/14  12:35   13.8   14.1   13.8    58    5.7  23.0     W   1.92  38.0     W    9.5   13.1    8.7  1006.7  0.00   0.0   0.016   0.000   22.9    59   14.5   23.1  10.82 1.1660    117    1    100.0    5 
21/10/14  12:40   13.7   13.8   13.7    58    5.6  21.0   WNW   1.75  35.0     W    9.6   12.9    8.8  1006.8  0.00   0.0   0.016   0.000   22.9    59   14.5   23.2  10.82 1.1658    117    1    100.0    5 
21/10/14  12:45   13.7   13.7   13.7    58    5.5  20.0   WNW   1.67  37.0   WNW    9.6   12.9    8.8  1006.9  0.00   0.0   0.016   0.000   23.0    59   14.6   23.2  10.81 1.1656    116    1    100.0    5 
21/10/14  12:50   13.6   13.7   13.6    59    5.7  18.0   WNW   1.50  35.0   WNW    9.8   12.8    9.1  1007.0  0.00   0.0   0.016   0.000   23.0    59   14.6   23.2  10.81 1.1657    116    1    100.0    5 
91672